<?xml version="1.0" encoding="UTF-8" standalone="no" ?>
<gpx xmlns="http://www.topografix.com/GPX/1/1" xmlns:xsi="http://www.w3.org/2001/XMLSchema-instance" xsi:schemaLocation="http://www.topografix.com/GPX/1/1 http://www.topografix.com/GPX/1/1/gpx.xsd" version="1.1" creator="VisuGPX - https://www.visugpx.com">
  <metadata>
    <name>Baccarat</name>
    <desc><![CDATA[Baccarat place de l'église, la Roseraie, le Moulin à vent, ferme du ruisseau Bourupt, Badménil, route forestière, quartier du Haut Buisson, les Gadines, Deneuvre]]></desc>
  </metadata>
  <trk>
    <name><![CDATA[2019-10-31 16:31:27]]></name>
    <trkseg>
      <trkpt lat="48.44737" lon="6.73919">
        <ele>274.11</ele>
        <time>2019-10-31T12:33:56Z</time>
      </trkpt>
      <trkpt lat="48.44744" lon="6.73914">
        <ele>273.63</ele>
        <time>2019-10-31T12:35:09Z</time>
      </trkpt>
      <trkpt lat="48.44755" lon="6.73913">
        <ele>274.11</ele>
        <time>2019-10-31T12:35:29Z</time>
      </trkpt>
      <trkpt lat="48.44763" lon="6.73906">
        <ele>274.11</ele>
        <time>2019-10-31T12:35:38Z</time>
      </trkpt>
      <trkpt lat="48.44772" lon="6.73901">
        <ele>273.63</ele>
        <time>2019-10-31T12:35:47Z</time>
      </trkpt>
      <trkpt lat="48.44782" lon="6.73894">
        <ele>274.11</ele>
        <time>2019-10-31T12:35:56Z</time>
      </trkpt>
      <trkpt lat="48.4479" lon="6.73884">
        <ele>274.11</ele>
        <time>2019-10-31T12:36:05Z</time>
      </trkpt>
      <trkpt lat="48.44797" lon="6.73873">
        <ele>274.11</ele>
        <time>2019-10-31T12:36:14Z</time>
      </trkpt>
      <trkpt lat="48.44805" lon="6.73865">
        <ele>274.59</ele>
        <time>2019-10-31T12:36:23Z</time>
      </trkpt>
      <trkpt lat="48.44814" lon="6.73856">
        <ele>274.59</ele>
        <time>2019-10-31T12:36:32Z</time>
      </trkpt>
      <trkpt lat="48.44817" lon="6.7384">
        <ele>274.59</ele>
        <time>2019-10-31T12:36:39Z</time>
      </trkpt>
      <trkpt lat="48.44823" lon="6.73837">
        <ele>274.59</ele>
        <time>2019-10-31T12:36:48Z</time>
      </trkpt>
      <trkpt lat="48.44831" lon="6.73832">
        <ele>275.07</ele>
        <time>2019-10-31T12:36:57Z</time>
      </trkpt>
      <trkpt lat="48.44842" lon="6.73828">
        <ele>275.56</ele>
        <time>2019-10-31T12:37:06Z</time>
      </trkpt>
      <trkpt lat="48.44852" lon="6.73826">
        <ele>276.04</ele>
        <time>2019-10-31T12:37:16Z</time>
      </trkpt>
      <trkpt lat="48.4486" lon="6.7382">
        <ele>276.52</ele>
        <time>2019-10-31T12:37:27Z</time>
      </trkpt>
      <trkpt lat="48.44862" lon="6.73799">
        <ele>276.52</ele>
        <time>2019-10-31T12:37:39Z</time>
      </trkpt>
      <trkpt lat="48.44858" lon="6.73785">
        <ele>276.04</ele>
        <time>2019-10-31T12:37:47Z</time>
      </trkpt>
      <trkpt lat="48.44867" lon="6.7378">
        <ele>276.52</ele>
        <time>2019-10-31T12:37:57Z</time>
      </trkpt>
      <trkpt lat="48.44873" lon="6.73781">
        <ele>276.52</ele>
        <time>2019-10-31T12:38:06Z</time>
      </trkpt>
      <trkpt lat="48.44881" lon="6.73787">
        <ele>276.52</ele>
        <time>2019-10-31T12:38:15Z</time>
      </trkpt>
      <trkpt lat="48.4489" lon="6.73782">
        <ele>276.52</ele>
        <time>2019-10-31T12:38:23Z</time>
      </trkpt>
      <trkpt lat="48.449" lon="6.73773">
        <ele>276.04</ele>
        <time>2019-10-31T12:38:33Z</time>
      </trkpt>
      <trkpt lat="48.44912" lon="6.73776">
        <ele>275.56</ele>
        <time>2019-10-31T12:38:42Z</time>
      </trkpt>
      <trkpt lat="48.44923" lon="6.73775">
        <ele>274.59</ele>
        <time>2019-10-31T12:38:50Z</time>
      </trkpt>
      <trkpt lat="48.44935" lon="6.73776">
        <ele>274.11</ele>
        <time>2019-10-31T12:39:10Z</time>
      </trkpt>
      <trkpt lat="48.44938" lon="6.73786">
        <ele>274.11</ele>
        <time>2019-10-31T12:39:17Z</time>
      </trkpt>
      <trkpt lat="48.44941" lon="6.73798">
        <ele>274.11</ele>
        <time>2019-10-31T12:39:24Z</time>
      </trkpt>
      <trkpt lat="48.44951" lon="6.73798">
        <ele>274.11</ele>
        <time>2019-10-31T12:39:32Z</time>
      </trkpt>
      <trkpt lat="48.4496" lon="6.73796">
        <ele>273.63</ele>
        <time>2019-10-31T12:39:40Z</time>
      </trkpt>
      <trkpt lat="48.44971" lon="6.7379">
        <ele>273.15</ele>
        <time>2019-10-31T12:39:48Z</time>
      </trkpt>
      <trkpt lat="48.4498" lon="6.73787">
        <ele>273.63</ele>
        <time>2019-10-31T12:39:56Z</time>
      </trkpt>
      <trkpt lat="48.4499" lon="6.73783">
        <ele>273.63</ele>
        <time>2019-10-31T12:40:04Z</time>
      </trkpt>
      <trkpt lat="48.44999" lon="6.73779">
        <ele>273.63</ele>
        <time>2019-10-31T12:40:12Z</time>
      </trkpt>
      <trkpt lat="48.45007" lon="6.73781">
        <ele>273.63</ele>
        <time>2019-10-31T12:40:21Z</time>
      </trkpt>
      <trkpt lat="48.45015" lon="6.73786">
        <ele>273.63</ele>
        <time>2019-10-31T12:40:30Z</time>
      </trkpt>
      <trkpt lat="48.45024" lon="6.73783">
        <ele>273.63</ele>
        <time>2019-10-31T12:40:43Z</time>
      </trkpt>
      <trkpt lat="48.45033" lon="6.73777">
        <ele>273.15</ele>
        <time>2019-10-31T12:40:50Z</time>
      </trkpt>
      <trkpt lat="48.45042" lon="6.73768">
        <ele>273.63</ele>
        <time>2019-10-31T12:40:58Z</time>
      </trkpt>
      <trkpt lat="48.45051" lon="6.73763">
        <ele>273.15</ele>
        <time>2019-10-31T12:41:08Z</time>
      </trkpt>
      <trkpt lat="48.45061" lon="6.73764">
        <ele>273.63</ele>
        <time>2019-10-31T12:41:16Z</time>
      </trkpt>
      <trkpt lat="48.45071" lon="6.73763">
        <ele>273.15</ele>
        <time>2019-10-31T12:41:24Z</time>
      </trkpt>
      <trkpt lat="48.45081" lon="6.73764">
        <ele>273.63</ele>
        <time>2019-10-31T12:41:32Z</time>
      </trkpt>
      <trkpt lat="48.45091" lon="6.73766">
        <ele>273.15</ele>
        <time>2019-10-31T12:41:40Z</time>
      </trkpt>
      <trkpt lat="48.45101" lon="6.73766">
        <ele>273.15</ele>
        <time>2019-10-31T12:41:49Z</time>
      </trkpt>
      <trkpt lat="48.4511" lon="6.73768">
        <ele>272.67</ele>
        <time>2019-10-31T12:41:58Z</time>
      </trkpt>
      <trkpt lat="48.45121" lon="6.7377">
        <ele>272.67</ele>
        <time>2019-10-31T12:42:06Z</time>
      </trkpt>
      <trkpt lat="48.45131" lon="6.73769">
        <ele>272.67</ele>
        <time>2019-10-31T12:42:13Z</time>
      </trkpt>
      <trkpt lat="48.45141" lon="6.73767">
        <ele>272.67</ele>
        <time>2019-10-31T12:42:21Z</time>
      </trkpt>
      <trkpt lat="48.45151" lon="6.73763">
        <ele>272.67</ele>
        <time>2019-10-31T12:42:29Z</time>
      </trkpt>
      <trkpt lat="48.45161" lon="6.73764">
        <ele>272.67</ele>
        <time>2019-10-31T12:42:37Z</time>
      </trkpt>
      <trkpt lat="48.45171" lon="6.73759">
        <ele>272.67</ele>
        <time>2019-10-31T12:42:45Z</time>
      </trkpt>
      <trkpt lat="48.4518" lon="6.73759">
        <ele>272.67</ele>
        <time>2019-10-31T12:42:54Z</time>
      </trkpt>
      <trkpt lat="48.45192" lon="6.73756">
        <ele>272.67</ele>
        <time>2019-10-31T12:43:03Z</time>
      </trkpt>
      <trkpt lat="48.45203" lon="6.73753">
        <ele>272.67</ele>
        <time>2019-10-31T12:43:21Z</time>
      </trkpt>
      <trkpt lat="48.45213" lon="6.7375">
        <ele>273.15</ele>
        <time>2019-10-31T12:43:30Z</time>
      </trkpt>
      <trkpt lat="48.45224" lon="6.73738">
        <ele>273.15</ele>
        <time>2019-10-31T12:43:40Z</time>
      </trkpt>
      <trkpt lat="48.45233" lon="6.7373">
        <ele>273.15</ele>
        <time>2019-10-31T12:43:49Z</time>
      </trkpt>
      <trkpt lat="48.45243" lon="6.73722">
        <ele>273.15</ele>
        <time>2019-10-31T12:43:57Z</time>
      </trkpt>
      <trkpt lat="48.45258" lon="6.73715">
        <ele>273.15</ele>
        <time>2019-10-31T12:44:07Z</time>
      </trkpt>
      <trkpt lat="48.45268" lon="6.73708">
        <ele>272.67</ele>
        <time>2019-10-31T12:44:16Z</time>
      </trkpt>
      <trkpt lat="48.45278" lon="6.73706">
        <ele>272.67</ele>
        <time>2019-10-31T12:44:25Z</time>
      </trkpt>
      <trkpt lat="48.45288" lon="6.73702">
        <ele>273.15</ele>
        <time>2019-10-31T12:44:35Z</time>
      </trkpt>
      <trkpt lat="48.453" lon="6.737">
        <ele>272.67</ele>
        <time>2019-10-31T12:44:44Z</time>
      </trkpt>
      <trkpt lat="48.4531" lon="6.73698">
        <ele>272.67</ele>
        <time>2019-10-31T12:44:52Z</time>
      </trkpt>
      <trkpt lat="48.45319" lon="6.73696">
        <ele>272.19</ele>
        <time>2019-10-31T12:45:01Z</time>
      </trkpt>
      <trkpt lat="48.45328" lon="6.73695">
        <ele>272.19</ele>
        <time>2019-10-31T12:45:09Z</time>
      </trkpt>
      <trkpt lat="48.45338" lon="6.73687">
        <ele>272.19</ele>
        <time>2019-10-31T12:45:18Z</time>
      </trkpt>
      <trkpt lat="48.45349" lon="6.73677">
        <ele>272.19</ele>
        <time>2019-10-31T12:45:27Z</time>
      </trkpt>
      <trkpt lat="48.45359" lon="6.73669">
        <ele>272.19</ele>
        <time>2019-10-31T12:45:37Z</time>
      </trkpt>
      <trkpt lat="48.45368" lon="6.73661">
        <ele>271.71</ele>
        <time>2019-10-31T12:45:47Z</time>
      </trkpt>
      <trkpt lat="48.45377" lon="6.73652">
        <ele>272.67</ele>
        <time>2019-10-31T12:46:01Z</time>
      </trkpt>
      <trkpt lat="48.45384" lon="6.73642">
        <ele>272.67</ele>
        <time>2019-10-31T12:46:09Z</time>
      </trkpt>
      <trkpt lat="48.45393" lon="6.73634">
        <ele>272.67</ele>
        <time>2019-10-31T12:46:18Z</time>
      </trkpt>
      <trkpt lat="48.454" lon="6.73621">
        <ele>272.67</ele>
        <time>2019-10-31T12:46:28Z</time>
      </trkpt>
      <trkpt lat="48.45407" lon="6.73605">
        <ele>272.67</ele>
        <time>2019-10-31T12:46:38Z</time>
      </trkpt>
      <trkpt lat="48.45413" lon="6.73592">
        <ele>272.67</ele>
        <time>2019-10-31T12:46:46Z</time>
      </trkpt>
      <trkpt lat="48.45416" lon="6.73578">
        <ele>272.67</ele>
        <time>2019-10-31T12:46:54Z</time>
      </trkpt>
      <trkpt lat="48.4542" lon="6.73565">
        <ele>272.67</ele>
        <time>2019-10-31T12:47:02Z</time>
      </trkpt>
      <trkpt lat="48.45423" lon="6.73553">
        <ele>272.67</ele>
        <time>2019-10-31T12:47:10Z</time>
      </trkpt>
      <trkpt lat="48.45425" lon="6.7354">
        <ele>272.67</ele>
        <time>2019-10-31T12:47:18Z</time>
      </trkpt>
      <trkpt lat="48.45428" lon="6.73526">
        <ele>273.15</ele>
        <time>2019-10-31T12:47:26Z</time>
      </trkpt>
      <trkpt lat="48.4543" lon="6.73511">
        <ele>273.15</ele>
        <time>2019-10-31T12:47:34Z</time>
      </trkpt>
      <trkpt lat="48.45426" lon="6.73497">
        <ele>273.15</ele>
        <time>2019-10-31T12:47:41Z</time>
      </trkpt>
      <trkpt lat="48.45425" lon="6.73481">
        <ele>273.15</ele>
        <time>2019-10-31T12:47:49Z</time>
      </trkpt>
      <trkpt lat="48.45429" lon="6.73465">
        <ele>273.15</ele>
        <time>2019-10-31T12:47:57Z</time>
      </trkpt>
      <trkpt lat="48.45436" lon="6.7345">
        <ele>273.15</ele>
        <time>2019-10-31T12:48:05Z</time>
      </trkpt>
      <trkpt lat="48.45439" lon="6.73436">
        <ele>273.15</ele>
        <time>2019-10-31T12:48:13Z</time>
      </trkpt>
      <trkpt lat="48.45444" lon="6.73425">
        <ele>273.63</ele>
        <time>2019-10-31T12:48:22Z</time>
      </trkpt>
      <trkpt lat="48.4545" lon="6.73416">
        <ele>273.15</ele>
        <time>2019-10-31T12:48:33Z</time>
      </trkpt>
      <trkpt lat="48.4546" lon="6.7341">
        <ele>273.63</ele>
        <time>2019-10-31T12:48:43Z</time>
      </trkpt>
      <trkpt lat="48.45467" lon="6.73393">
        <ele>273.63</ele>
        <time>2019-10-31T12:49:57Z</time>
      </trkpt>
      <trkpt lat="48.45461" lon="6.73403">
        <ele>273.63</ele>
        <time>2019-10-31T12:51:33Z</time>
      </trkpt>
      <trkpt lat="48.45471" lon="6.73393">
        <ele>273.63</ele>
        <time>2019-10-31T12:52:18Z</time>
      </trkpt>
      <trkpt lat="48.45478" lon="6.73387">
        <ele>273.63</ele>
        <time>2019-10-31T12:52:28Z</time>
      </trkpt>
      <trkpt lat="48.45487" lon="6.73382">
        <ele>273.63</ele>
        <time>2019-10-31T12:52:36Z</time>
      </trkpt>
      <trkpt lat="48.45496" lon="6.73377">
        <ele>273.63</ele>
        <time>2019-10-31T12:52:44Z</time>
      </trkpt>
      <trkpt lat="48.45506" lon="6.73371">
        <ele>273.63</ele>
        <time>2019-10-31T12:52:52Z</time>
      </trkpt>
      <trkpt lat="48.45515" lon="6.73366">
        <ele>273.63</ele>
        <time>2019-10-31T12:52:59Z</time>
      </trkpt>
      <trkpt lat="48.45525" lon="6.7336">
        <ele>273.63</ele>
        <time>2019-10-31T12:53:06Z</time>
      </trkpt>
      <trkpt lat="48.45534" lon="6.73356">
        <ele>273.63</ele>
        <time>2019-10-31T12:53:14Z</time>
      </trkpt>
      <trkpt lat="48.45542" lon="6.73352">
        <ele>273.63</ele>
        <time>2019-10-31T12:53:22Z</time>
      </trkpt>
      <trkpt lat="48.45552" lon="6.73344">
        <ele>273.63</ele>
        <time>2019-10-31T12:53:30Z</time>
      </trkpt>
      <trkpt lat="48.4556" lon="6.73339">
        <ele>273.63</ele>
        <time>2019-10-31T12:53:37Z</time>
      </trkpt>
      <trkpt lat="48.45568" lon="6.73335">
        <ele>273.63</ele>
        <time>2019-10-31T12:53:44Z</time>
      </trkpt>
      <trkpt lat="48.45578" lon="6.73331">
        <ele>273.15</ele>
        <time>2019-10-31T12:53:52Z</time>
      </trkpt>
      <trkpt lat="48.45587" lon="6.73327">
        <ele>273.15</ele>
        <time>2019-10-31T12:54:00Z</time>
      </trkpt>
      <trkpt lat="48.45596" lon="6.73323">
        <ele>273.63</ele>
        <time>2019-10-31T12:54:08Z</time>
      </trkpt>
      <trkpt lat="48.45606" lon="6.73318">
        <ele>273.15</ele>
        <time>2019-10-31T12:54:17Z</time>
      </trkpt>
      <trkpt lat="48.45615" lon="6.73312">
        <ele>273.15</ele>
        <time>2019-10-31T12:54:25Z</time>
      </trkpt>
      <trkpt lat="48.45623" lon="6.73307">
        <ele>273.63</ele>
        <time>2019-10-31T12:54:33Z</time>
      </trkpt>
      <trkpt lat="48.45632" lon="6.73304">
        <ele>273.63</ele>
        <time>2019-10-31T12:54:41Z</time>
      </trkpt>
      <trkpt lat="48.45641" lon="6.733">
        <ele>273.63</ele>
        <time>2019-10-31T12:54:50Z</time>
      </trkpt>
      <trkpt lat="48.4565" lon="6.73298">
        <ele>273.15</ele>
        <time>2019-10-31T12:54:58Z</time>
      </trkpt>
      <trkpt lat="48.4566" lon="6.73298">
        <ele>273.63</ele>
        <time>2019-10-31T12:55:06Z</time>
      </trkpt>
      <trkpt lat="48.45668" lon="6.73297">
        <ele>273.63</ele>
        <time>2019-10-31T12:55:14Z</time>
      </trkpt>
      <trkpt lat="48.45678" lon="6.73295">
        <ele>273.63</ele>
        <time>2019-10-31T12:55:22Z</time>
      </trkpt>
      <trkpt lat="48.45687" lon="6.73294">
        <ele>273.63</ele>
        <time>2019-10-31T12:55:30Z</time>
      </trkpt>
      <trkpt lat="48.45697" lon="6.73292">
        <ele>273.63</ele>
        <time>2019-10-31T12:55:38Z</time>
      </trkpt>
      <trkpt lat="48.45706" lon="6.73293">
        <ele>273.63</ele>
        <time>2019-10-31T12:55:47Z</time>
      </trkpt>
      <trkpt lat="48.45716" lon="6.73292">
        <ele>273.63</ele>
        <time>2019-10-31T12:55:56Z</time>
      </trkpt>
      <trkpt lat="48.45727" lon="6.73288">
        <ele>273.63</ele>
        <time>2019-10-31T12:56:04Z</time>
      </trkpt>
      <trkpt lat="48.45737" lon="6.73287">
        <ele>273.63</ele>
        <time>2019-10-31T12:56:13Z</time>
      </trkpt>
      <trkpt lat="48.45746" lon="6.73287">
        <ele>273.63</ele>
        <time>2019-10-31T12:56:21Z</time>
      </trkpt>
      <trkpt lat="48.45756" lon="6.7329">
        <ele>273.15</ele>
        <time>2019-10-31T12:56:29Z</time>
      </trkpt>
      <trkpt lat="48.45766" lon="6.73293">
        <ele>273.15</ele>
        <time>2019-10-31T12:56:38Z</time>
      </trkpt>
      <trkpt lat="48.45776" lon="6.73298">
        <ele>273.63</ele>
        <time>2019-10-31T12:56:48Z</time>
      </trkpt>
      <trkpt lat="48.45787" lon="6.73305">
        <ele>273.15</ele>
        <time>2019-10-31T12:56:56Z</time>
      </trkpt>
      <trkpt lat="48.45797" lon="6.73311">
        <ele>273.63</ele>
        <time>2019-10-31T12:57:04Z</time>
      </trkpt>
      <trkpt lat="48.45806" lon="6.73315">
        <ele>273.15</ele>
        <time>2019-10-31T12:57:12Z</time>
      </trkpt>
      <trkpt lat="48.45814" lon="6.73322">
        <ele>273.15</ele>
        <time>2019-10-31T12:57:21Z</time>
      </trkpt>
      <trkpt lat="48.45823" lon="6.73328">
        <ele>273.15</ele>
        <time>2019-10-31T12:57:30Z</time>
      </trkpt>
      <trkpt lat="48.45833" lon="6.73331">
        <ele>273.15</ele>
        <time>2019-10-31T12:57:38Z</time>
      </trkpt>
      <trkpt lat="48.45845" lon="6.73331">
        <ele>273.15</ele>
        <time>2019-10-31T12:57:46Z</time>
      </trkpt>
      <trkpt lat="48.45856" lon="6.73327">
        <ele>273.15</ele>
        <time>2019-10-31T12:57:54Z</time>
      </trkpt>
      <trkpt lat="48.45866" lon="6.73325">
        <ele>273.15</ele>
        <time>2019-10-31T12:58:03Z</time>
      </trkpt>
      <trkpt lat="48.45876" lon="6.73322">
        <ele>273.15</ele>
        <time>2019-10-31T12:58:11Z</time>
      </trkpt>
      <trkpt lat="48.45887" lon="6.73317">
        <ele>273.15</ele>
        <time>2019-10-31T12:58:19Z</time>
      </trkpt>
      <trkpt lat="48.45897" lon="6.73313">
        <ele>273.15</ele>
        <time>2019-10-31T12:58:27Z</time>
      </trkpt>
      <trkpt lat="48.45907" lon="6.7331">
        <ele>273.15</ele>
        <time>2019-10-31T12:58:35Z</time>
      </trkpt>
      <trkpt lat="48.45916" lon="6.73305">
        <ele>273.15</ele>
        <time>2019-10-31T12:58:43Z</time>
      </trkpt>
      <trkpt lat="48.45925" lon="6.73301">
        <ele>273.15</ele>
        <time>2019-10-31T12:58:51Z</time>
      </trkpt>
      <trkpt lat="48.45935" lon="6.73296">
        <ele>272.67</ele>
        <time>2019-10-31T12:58:59Z</time>
      </trkpt>
      <trkpt lat="48.45944" lon="6.7329">
        <ele>272.67</ele>
        <time>2019-10-31T12:59:07Z</time>
      </trkpt>
      <trkpt lat="48.45952" lon="6.73285">
        <ele>272.67</ele>
        <time>2019-10-31T12:59:15Z</time>
      </trkpt>
      <trkpt lat="48.45962" lon="6.73278">
        <ele>272.67</ele>
        <time>2019-10-31T12:59:24Z</time>
      </trkpt>
      <trkpt lat="48.45972" lon="6.7327">
        <ele>272.67</ele>
        <time>2019-10-31T12:59:33Z</time>
      </trkpt>
      <trkpt lat="48.4598" lon="6.73262">
        <ele>272.67</ele>
        <time>2019-10-31T12:59:42Z</time>
      </trkpt>
      <trkpt lat="48.45989" lon="6.73253">
        <ele>272.67</ele>
        <time>2019-10-31T12:59:51Z</time>
      </trkpt>
      <trkpt lat="48.45998" lon="6.73246">
        <ele>272.67</ele>
        <time>2019-10-31T12:59:59Z</time>
      </trkpt>
      <trkpt lat="48.46007" lon="6.73239">
        <ele>272.67</ele>
        <time>2019-10-31T13:00:07Z</time>
      </trkpt>
      <trkpt lat="48.46016" lon="6.73232">
        <ele>272.67</ele>
        <time>2019-10-31T13:00:15Z</time>
      </trkpt>
      <trkpt lat="48.46024" lon="6.73224">
        <ele>272.67</ele>
        <time>2019-10-31T13:00:23Z</time>
      </trkpt>
      <trkpt lat="48.46032" lon="6.73217">
        <ele>272.67</ele>
        <time>2019-10-31T13:00:31Z</time>
      </trkpt>
      <trkpt lat="48.4604" lon="6.7321">
        <ele>272.19</ele>
        <time>2019-10-31T13:00:39Z</time>
      </trkpt>
      <trkpt lat="48.46048" lon="6.73204">
        <ele>272.19</ele>
        <time>2019-10-31T13:00:48Z</time>
      </trkpt>
      <trkpt lat="48.46056" lon="6.73197">
        <ele>272.19</ele>
        <time>2019-10-31T13:01:16Z</time>
      </trkpt>
      <trkpt lat="48.46064" lon="6.73188">
        <ele>272.19</ele>
        <time>2019-10-31T13:01:24Z</time>
      </trkpt>
      <trkpt lat="48.46072" lon="6.73178">
        <ele>272.19</ele>
        <time>2019-10-31T13:01:32Z</time>
      </trkpt>
      <trkpt lat="48.46079" lon="6.73169">
        <ele>272.19</ele>
        <time>2019-10-31T13:01:40Z</time>
      </trkpt>
      <trkpt lat="48.46086" lon="6.73159">
        <ele>271.71</ele>
        <time>2019-10-31T13:01:48Z</time>
      </trkpt>
      <trkpt lat="48.46093" lon="6.73147">
        <ele>272.19</ele>
        <time>2019-10-31T13:01:57Z</time>
      </trkpt>
      <trkpt lat="48.461" lon="6.73136">
        <ele>272.19</ele>
        <time>2019-10-31T13:02:05Z</time>
      </trkpt>
      <trkpt lat="48.46106" lon="6.73126">
        <ele>272.19</ele>
        <time>2019-10-31T13:02:13Z</time>
      </trkpt>
      <trkpt lat="48.46113" lon="6.73116">
        <ele>272.19</ele>
        <time>2019-10-31T13:02:21Z</time>
      </trkpt>
      <trkpt lat="48.46119" lon="6.73105">
        <ele>272.19</ele>
        <time>2019-10-31T13:02:28Z</time>
      </trkpt>
      <trkpt lat="48.46127" lon="6.73096">
        <ele>272.19</ele>
        <time>2019-10-31T13:02:36Z</time>
      </trkpt>
      <trkpt lat="48.46134" lon="6.73088">
        <ele>272.19</ele>
        <time>2019-10-31T13:02:44Z</time>
      </trkpt>
      <trkpt lat="48.46141" lon="6.73078">
        <ele>272.67</ele>
        <time>2019-10-31T13:02:53Z</time>
      </trkpt>
      <trkpt lat="48.46148" lon="6.73068">
        <ele>272.19</ele>
        <time>2019-10-31T13:03:01Z</time>
      </trkpt>
      <trkpt lat="48.46156" lon="6.73058">
        <ele>272.19</ele>
        <time>2019-10-31T13:03:09Z</time>
      </trkpt>
      <trkpt lat="48.46163" lon="6.73049">
        <ele>272.67</ele>
        <time>2019-10-31T13:03:17Z</time>
      </trkpt>
      <trkpt lat="48.46171" lon="6.73037">
        <ele>272.67</ele>
        <time>2019-10-31T13:03:26Z</time>
      </trkpt>
      <trkpt lat="48.46179" lon="6.73027">
        <ele>272.67</ele>
        <time>2019-10-31T13:03:36Z</time>
      </trkpt>
      <trkpt lat="48.46185" lon="6.73016">
        <ele>272.19</ele>
        <time>2019-10-31T13:03:45Z</time>
      </trkpt>
      <trkpt lat="48.46195" lon="6.73006">
        <ele>272.19</ele>
        <time>2019-10-31T13:03:54Z</time>
      </trkpt>
      <trkpt lat="48.46203" lon="6.72995">
        <ele>272.19</ele>
        <time>2019-10-31T13:04:03Z</time>
      </trkpt>
      <trkpt lat="48.46212" lon="6.72984">
        <ele>272.19</ele>
        <time>2019-10-31T13:04:14Z</time>
      </trkpt>
      <trkpt lat="48.46222" lon="6.72972">
        <ele>272.19</ele>
        <time>2019-10-31T13:04:24Z</time>
      </trkpt>
      <trkpt lat="48.46229" lon="6.72959">
        <ele>272.19</ele>
        <time>2019-10-31T13:04:34Z</time>
      </trkpt>
      <trkpt lat="48.46237" lon="6.72946">
        <ele>272.19</ele>
        <time>2019-10-31T13:04:43Z</time>
      </trkpt>
      <trkpt lat="48.46244" lon="6.72936">
        <ele>272.19</ele>
        <time>2019-10-31T13:04:52Z</time>
      </trkpt>
      <trkpt lat="48.46252" lon="6.72921">
        <ele>272.19</ele>
        <time>2019-10-31T13:05:03Z</time>
      </trkpt>
      <trkpt lat="48.4626" lon="6.72904">
        <ele>271.71</ele>
        <time>2019-10-31T13:05:20Z</time>
      </trkpt>
      <trkpt lat="48.46267" lon="6.72889">
        <ele>272.19</ele>
        <time>2019-10-31T13:05:30Z</time>
      </trkpt>
      <trkpt lat="48.46268" lon="6.72872">
        <ele>272.19</ele>
        <time>2019-10-31T13:05:40Z</time>
      </trkpt>
      <trkpt lat="48.46258" lon="6.72862">
        <ele>272.19</ele>
        <time>2019-10-31T13:06:05Z</time>
      </trkpt>
      <trkpt lat="48.46247" lon="6.72857">
        <ele>272.67</ele>
        <time>2019-10-31T13:06:15Z</time>
      </trkpt>
      <trkpt lat="48.46237" lon="6.72851">
        <ele>272.67</ele>
        <time>2019-10-31T13:06:25Z</time>
      </trkpt>
      <trkpt lat="48.46229" lon="6.72846">
        <ele>272.67</ele>
        <time>2019-10-31T13:06:33Z</time>
      </trkpt>
      <trkpt lat="48.46219" lon="6.72841">
        <ele>272.67</ele>
        <time>2019-10-31T13:06:42Z</time>
      </trkpt>
      <trkpt lat="48.46208" lon="6.72837">
        <ele>273.15</ele>
        <time>2019-10-31T13:06:51Z</time>
      </trkpt>
      <trkpt lat="48.46198" lon="6.72831">
        <ele>273.15</ele>
        <time>2019-10-31T13:07:01Z</time>
      </trkpt>
      <trkpt lat="48.46189" lon="6.72824">
        <ele>273.63</ele>
        <time>2019-10-31T13:07:11Z</time>
      </trkpt>
      <trkpt lat="48.46179" lon="6.72818">
        <ele>274.11</ele>
        <time>2019-10-31T13:07:20Z</time>
      </trkpt>
      <trkpt lat="48.46169" lon="6.72812">
        <ele>274.59</ele>
        <time>2019-10-31T13:07:29Z</time>
      </trkpt>
      <trkpt lat="48.46159" lon="6.72807">
        <ele>275.07</ele>
        <time>2019-10-31T13:07:39Z</time>
      </trkpt>
      <trkpt lat="48.46149" lon="6.72801">
        <ele>276.04</ele>
        <time>2019-10-31T13:07:49Z</time>
      </trkpt>
      <trkpt lat="48.46141" lon="6.72794">
        <ele>277</ele>
        <time>2019-10-31T13:07:59Z</time>
      </trkpt>
      <trkpt lat="48.46132" lon="6.72787">
        <ele>277.48</ele>
        <time>2019-10-31T13:08:08Z</time>
      </trkpt>
      <trkpt lat="48.46123" lon="6.72782">
        <ele>278.44</ele>
        <time>2019-10-31T13:08:17Z</time>
      </trkpt>
      <trkpt lat="48.46114" lon="6.72774">
        <ele>279.4</ele>
        <time>2019-10-31T13:08:28Z</time>
      </trkpt>
      <trkpt lat="48.46106" lon="6.72764">
        <ele>280.36</ele>
        <time>2019-10-31T13:08:38Z</time>
      </trkpt>
      <trkpt lat="48.46098" lon="6.72755">
        <ele>281.32</ele>
        <time>2019-10-31T13:08:49Z</time>
      </trkpt>
      <trkpt lat="48.4609" lon="6.72746">
        <ele>282.28</ele>
        <time>2019-10-31T13:09:00Z</time>
      </trkpt>
      <trkpt lat="48.46082" lon="6.72737">
        <ele>283.73</ele>
        <time>2019-10-31T13:09:11Z</time>
      </trkpt>
      <trkpt lat="48.46075" lon="6.72724">
        <ele>284.69</ele>
        <time>2019-10-31T13:09:23Z</time>
      </trkpt>
      <trkpt lat="48.46067" lon="6.72716">
        <ele>286.13</ele>
        <time>2019-10-31T13:09:33Z</time>
      </trkpt>
      <trkpt lat="48.46057" lon="6.72709">
        <ele>287.09</ele>
        <time>2019-10-31T13:09:44Z</time>
      </trkpt>
      <trkpt lat="48.46047" lon="6.72705">
        <ele>288.53</ele>
        <time>2019-10-31T13:09:56Z</time>
      </trkpt>
      <trkpt lat="48.46036" lon="6.72701">
        <ele>289.49</ele>
        <time>2019-10-31T13:10:08Z</time>
      </trkpt>
      <trkpt lat="48.46025" lon="6.72697">
        <ele>290.94</ele>
        <time>2019-10-31T13:10:20Z</time>
      </trkpt>
      <trkpt lat="48.46015" lon="6.72692">
        <ele>292.38</ele>
        <time>2019-10-31T13:10:31Z</time>
      </trkpt>
      <trkpt lat="48.46004" lon="6.72689">
        <ele>293.34</ele>
        <time>2019-10-31T13:10:42Z</time>
      </trkpt>
      <trkpt lat="48.45994" lon="6.72683">
        <ele>294.78</ele>
        <time>2019-10-31T13:10:53Z</time>
      </trkpt>
      <trkpt lat="48.45984" lon="6.72677">
        <ele>295.74</ele>
        <time>2019-10-31T13:11:04Z</time>
      </trkpt>
      <trkpt lat="48.45975" lon="6.72673">
        <ele>296.7</ele>
        <time>2019-10-31T13:11:14Z</time>
      </trkpt>
      <trkpt lat="48.45965" lon="6.72668">
        <ele>298.15</ele>
        <time>2019-10-31T13:11:25Z</time>
      </trkpt>
      <trkpt lat="48.45954" lon="6.72663">
        <ele>299.11</ele>
        <time>2019-10-31T13:11:36Z</time>
      </trkpt>
      <trkpt lat="48.45946" lon="6.72658">
        <ele>300.07</ele>
        <time>2019-10-31T13:11:45Z</time>
      </trkpt>
      <trkpt lat="48.45937" lon="6.72653">
        <ele>301.03</ele>
        <time>2019-10-31T13:11:55Z</time>
      </trkpt>
      <trkpt lat="48.45927" lon="6.72648">
        <ele>301.99</ele>
        <time>2019-10-31T13:12:05Z</time>
      </trkpt>
      <trkpt lat="48.45917" lon="6.72643">
        <ele>303.43</ele>
        <time>2019-10-31T13:12:15Z</time>
      </trkpt>
      <trkpt lat="48.45908" lon="6.72637">
        <ele>304.88</ele>
        <time>2019-10-31T13:12:25Z</time>
      </trkpt>
      <trkpt lat="48.45899" lon="6.7263">
        <ele>305.84</ele>
        <time>2019-10-31T13:12:34Z</time>
      </trkpt>
      <trkpt lat="48.45891" lon="6.72622">
        <ele>306.32</ele>
        <time>2019-10-31T13:12:43Z</time>
      </trkpt>
      <trkpt lat="48.45882" lon="6.72615">
        <ele>306.8</ele>
        <time>2019-10-31T13:12:52Z</time>
      </trkpt>
      <trkpt lat="48.45874" lon="6.72609">
        <ele>307.28</ele>
        <time>2019-10-31T13:13:01Z</time>
      </trkpt>
      <trkpt lat="48.45866" lon="6.726">
        <ele>307.76</ele>
        <time>2019-10-31T13:13:10Z</time>
      </trkpt>
      <trkpt lat="48.45858" lon="6.72593">
        <ele>308.24</ele>
        <time>2019-10-31T13:13:18Z</time>
      </trkpt>
      <trkpt lat="48.45849" lon="6.72587">
        <ele>309.2</ele>
        <time>2019-10-31T13:13:26Z</time>
      </trkpt>
      <trkpt lat="48.4584" lon="6.72584">
        <ele>309.2</ele>
        <time>2019-10-31T13:13:34Z</time>
      </trkpt>
      <trkpt lat="48.45831" lon="6.72586">
        <ele>309.2</ele>
        <time>2019-10-31T13:13:42Z</time>
      </trkpt>
      <trkpt lat="48.45822" lon="6.72589">
        <ele>309.68</ele>
        <time>2019-10-31T13:13:50Z</time>
      </trkpt>
      <trkpt lat="48.45813" lon="6.72592">
        <ele>309.68</ele>
        <time>2019-10-31T13:13:58Z</time>
      </trkpt>
      <trkpt lat="48.45804" lon="6.72594">
        <ele>309.68</ele>
        <time>2019-10-31T13:14:06Z</time>
      </trkpt>
      <trkpt lat="48.45795" lon="6.72596">
        <ele>310.16</ele>
        <time>2019-10-31T13:14:14Z</time>
      </trkpt>
      <trkpt lat="48.45786" lon="6.72599">
        <ele>310.16</ele>
        <time>2019-10-31T13:14:22Z</time>
      </trkpt>
      <trkpt lat="48.45776" lon="6.72601">
        <ele>310.64</ele>
        <time>2019-10-31T13:14:31Z</time>
      </trkpt>
      <trkpt lat="48.45766" lon="6.726">
        <ele>311.12</ele>
        <time>2019-10-31T13:14:40Z</time>
      </trkpt>
      <trkpt lat="48.45756" lon="6.72601">
        <ele>311.6</ele>
        <time>2019-10-31T13:14:50Z</time>
      </trkpt>
      <trkpt lat="48.45744" lon="6.72606">
        <ele>312.09</ele>
        <time>2019-10-31T13:15:42Z</time>
      </trkpt>
      <trkpt lat="48.4574" lon="6.72602">
        <ele>312.09</ele>
        <time>2019-10-31T13:16:28Z</time>
      </trkpt>
      <trkpt lat="48.45736" lon="6.72602">
        <ele>312.09</ele>
        <time>2019-10-31T13:19:06Z</time>
      </trkpt>
      <trkpt lat="48.45727" lon="6.72598">
        <ele>312.57</ele>
        <time>2019-10-31T13:19:15Z</time>
      </trkpt>
      <trkpt lat="48.45719" lon="6.72594">
        <ele>312.57</ele>
        <time>2019-10-31T13:19:23Z</time>
      </trkpt>
      <trkpt lat="48.4571" lon="6.72591">
        <ele>313.05</ele>
        <time>2019-10-31T13:19:31Z</time>
      </trkpt>
      <trkpt lat="48.45702" lon="6.72587">
        <ele>313.05</ele>
        <time>2019-10-31T13:19:39Z</time>
      </trkpt>
      <trkpt lat="48.45693" lon="6.72582">
        <ele>313.53</ele>
        <time>2019-10-31T13:19:48Z</time>
      </trkpt>
      <trkpt lat="48.45684" lon="6.72577">
        <ele>313.53</ele>
        <time>2019-10-31T13:19:56Z</time>
      </trkpt>
      <trkpt lat="48.45675" lon="6.72572">
        <ele>314.01</ele>
        <time>2019-10-31T13:20:04Z</time>
      </trkpt>
      <trkpt lat="48.45667" lon="6.72567">
        <ele>314.01</ele>
        <time>2019-10-31T13:20:12Z</time>
      </trkpt>
      <trkpt lat="48.45658" lon="6.7256">
        <ele>314.01</ele>
        <time>2019-10-31T13:20:21Z</time>
      </trkpt>
      <trkpt lat="48.4565" lon="6.72553">
        <ele>314.49</ele>
        <time>2019-10-31T13:20:31Z</time>
      </trkpt>
      <trkpt lat="48.45641" lon="6.72543">
        <ele>314.01</ele>
        <time>2019-10-31T13:20:41Z</time>
      </trkpt>
      <trkpt lat="48.4564" lon="6.72533">
        <ele>313.53</ele>
        <time>2019-10-31T13:20:51Z</time>
      </trkpt>
      <trkpt lat="48.45648" lon="6.72527">
        <ele>313.05</ele>
        <time>2019-10-31T13:21:00Z</time>
      </trkpt>
      <trkpt lat="48.45655" lon="6.72518">
        <ele>312.57</ele>
        <time>2019-10-31T13:21:08Z</time>
      </trkpt>
      <trkpt lat="48.45663" lon="6.72509">
        <ele>312.57</ele>
        <time>2019-10-31T13:21:16Z</time>
      </trkpt>
      <trkpt lat="48.45671" lon="6.72497">
        <ele>312.09</ele>
        <time>2019-10-31T13:21:23Z</time>
      </trkpt>
      <trkpt lat="48.45677" lon="6.72487">
        <ele>311.6</ele>
        <time>2019-10-31T13:21:30Z</time>
      </trkpt>
      <trkpt lat="48.45684" lon="6.72477">
        <ele>311.12</ele>
        <time>2019-10-31T13:21:38Z</time>
      </trkpt>
      <trkpt lat="48.45691" lon="6.72467">
        <ele>311.12</ele>
        <time>2019-10-31T13:21:46Z</time>
      </trkpt>
      <trkpt lat="48.45699" lon="6.72455">
        <ele>310.64</ele>
        <time>2019-10-31T13:21:55Z</time>
      </trkpt>
      <trkpt lat="48.45706" lon="6.72446">
        <ele>310.64</ele>
        <time>2019-10-31T13:22:03Z</time>
      </trkpt>
      <trkpt lat="48.45713" lon="6.72435">
        <ele>310.16</ele>
        <time>2019-10-31T13:22:11Z</time>
      </trkpt>
      <trkpt lat="48.4572" lon="6.72425">
        <ele>309.68</ele>
        <time>2019-10-31T13:22:19Z</time>
      </trkpt>
      <trkpt lat="48.45728" lon="6.72414">
        <ele>309.68</ele>
        <time>2019-10-31T13:22:27Z</time>
      </trkpt>
      <trkpt lat="48.45735" lon="6.72404">
        <ele>309.2</ele>
        <time>2019-10-31T13:22:35Z</time>
      </trkpt>
      <trkpt lat="48.45742" lon="6.72394">
        <ele>309.2</ele>
        <time>2019-10-31T13:22:43Z</time>
      </trkpt>
      <trkpt lat="48.45749" lon="6.72384">
        <ele>308.72</ele>
        <time>2019-10-31T13:22:51Z</time>
      </trkpt>
      <trkpt lat="48.45755" lon="6.72374">
        <ele>308.72</ele>
        <time>2019-10-31T13:22:59Z</time>
      </trkpt>
      <trkpt lat="48.45762" lon="6.72364">
        <ele>308.24</ele>
        <time>2019-10-31T13:23:07Z</time>
      </trkpt>
      <trkpt lat="48.45769" lon="6.72354">
        <ele>308.24</ele>
        <time>2019-10-31T13:23:16Z</time>
      </trkpt>
      <trkpt lat="48.45776" lon="6.72344">
        <ele>308.24</ele>
        <time>2019-10-31T13:23:25Z</time>
      </trkpt>
      <trkpt lat="48.45782" lon="6.72332">
        <ele>308.24</ele>
        <time>2019-10-31T13:23:34Z</time>
      </trkpt>
      <trkpt lat="48.45787" lon="6.7232">
        <ele>307.76</ele>
        <time>2019-10-31T13:23:42Z</time>
      </trkpt>
      <trkpt lat="48.45792" lon="6.72308">
        <ele>307.28</ele>
        <time>2019-10-31T13:23:50Z</time>
      </trkpt>
      <trkpt lat="48.45796" lon="6.72294">
        <ele>307.28</ele>
        <time>2019-10-31T13:23:59Z</time>
      </trkpt>
      <trkpt lat="48.458" lon="6.72281">
        <ele>306.8</ele>
        <time>2019-10-31T13:24:08Z</time>
      </trkpt>
      <trkpt lat="48.45804" lon="6.72267">
        <ele>306.8</ele>
        <time>2019-10-31T13:24:16Z</time>
      </trkpt>
      <trkpt lat="48.45808" lon="6.72255">
        <ele>306.32</ele>
        <time>2019-10-31T13:24:24Z</time>
      </trkpt>
      <trkpt lat="48.45812" lon="6.72241">
        <ele>306.32</ele>
        <time>2019-10-31T13:24:32Z</time>
      </trkpt>
      <trkpt lat="48.45817" lon="6.72228">
        <ele>305.84</ele>
        <time>2019-10-31T13:24:41Z</time>
      </trkpt>
      <trkpt lat="48.45821" lon="6.72214">
        <ele>305.36</ele>
        <time>2019-10-31T13:24:50Z</time>
      </trkpt>
      <trkpt lat="48.45825" lon="6.72201">
        <ele>305.36</ele>
        <time>2019-10-31T13:24:58Z</time>
      </trkpt>
      <trkpt lat="48.4583" lon="6.72188">
        <ele>304.39</ele>
        <time>2019-10-31T13:25:07Z</time>
      </trkpt>
      <trkpt lat="48.45833" lon="6.72175">
        <ele>304.39</ele>
        <time>2019-10-31T13:25:15Z</time>
      </trkpt>
      <trkpt lat="48.45837" lon="6.72163">
        <ele>303.91</ele>
        <time>2019-10-31T13:25:23Z</time>
      </trkpt>
      <trkpt lat="48.45842" lon="6.72149">
        <ele>303.43</ele>
        <time>2019-10-31T13:25:32Z</time>
      </trkpt>
      <trkpt lat="48.45847" lon="6.72137">
        <ele>302.95</ele>
        <time>2019-10-31T13:25:40Z</time>
      </trkpt>
      <trkpt lat="48.45851" lon="6.72124">
        <ele>302.47</ele>
        <time>2019-10-31T13:25:49Z</time>
      </trkpt>
      <trkpt lat="48.45855" lon="6.72111">
        <ele>301.99</ele>
        <time>2019-10-31T13:25:58Z</time>
      </trkpt>
      <trkpt lat="48.45859" lon="6.72097">
        <ele>301.51</ele>
        <time>2019-10-31T13:26:07Z</time>
      </trkpt>
      <trkpt lat="48.45864" lon="6.72083">
        <ele>301.03</ele>
        <time>2019-10-31T13:26:17Z</time>
      </trkpt>
      <trkpt lat="48.45868" lon="6.72069">
        <ele>300.55</ele>
        <time>2019-10-31T13:26:26Z</time>
      </trkpt>
      <trkpt lat="48.45873" lon="6.72056">
        <ele>300.07</ele>
        <time>2019-10-31T13:26:35Z</time>
      </trkpt>
      <trkpt lat="48.45878" lon="6.72043">
        <ele>299.59</ele>
        <time>2019-10-31T13:26:43Z</time>
      </trkpt>
      <trkpt lat="48.45882" lon="6.7203">
        <ele>299.11</ele>
        <time>2019-10-31T13:26:51Z</time>
      </trkpt>
      <trkpt lat="48.45887" lon="6.72017">
        <ele>299.11</ele>
        <time>2019-10-31T13:26:59Z</time>
      </trkpt>
      <trkpt lat="48.45892" lon="6.72005">
        <ele>298.63</ele>
        <time>2019-10-31T13:27:07Z</time>
      </trkpt>
      <trkpt lat="48.45896" lon="6.71993">
        <ele>297.67</ele>
        <time>2019-10-31T13:27:15Z</time>
      </trkpt>
      <trkpt lat="48.45899" lon="6.7198">
        <ele>297.18</ele>
        <time>2019-10-31T13:27:23Z</time>
      </trkpt>
      <trkpt lat="48.45904" lon="6.71967">
        <ele>296.7</ele>
        <time>2019-10-31T13:27:31Z</time>
      </trkpt>
      <trkpt lat="48.45909" lon="6.71954">
        <ele>296.22</ele>
        <time>2019-10-31T13:27:39Z</time>
      </trkpt>
      <trkpt lat="48.45913" lon="6.71941">
        <ele>295.74</ele>
        <time>2019-10-31T13:27:47Z</time>
      </trkpt>
      <trkpt lat="48.45918" lon="6.71928">
        <ele>294.78</ele>
        <time>2019-10-31T13:27:55Z</time>
      </trkpt>
      <trkpt lat="48.45923" lon="6.71916">
        <ele>294.3</ele>
        <time>2019-10-31T13:28:03Z</time>
      </trkpt>
      <trkpt lat="48.45926" lon="6.71903">
        <ele>293.82</ele>
        <time>2019-10-31T13:28:11Z</time>
      </trkpt>
      <trkpt lat="48.4593" lon="6.71891">
        <ele>293.34</ele>
        <time>2019-10-31T13:28:19Z</time>
      </trkpt>
      <trkpt lat="48.45934" lon="6.71878">
        <ele>292.86</ele>
        <time>2019-10-31T13:28:27Z</time>
      </trkpt>
      <trkpt lat="48.45939" lon="6.71865">
        <ele>292.38</ele>
        <time>2019-10-31T13:28:35Z</time>
      </trkpt>
      <trkpt lat="48.45943" lon="6.71853">
        <ele>291.42</ele>
        <time>2019-10-31T13:28:43Z</time>
      </trkpt>
      <trkpt lat="48.45947" lon="6.7184">
        <ele>290.94</ele>
        <time>2019-10-31T13:28:51Z</time>
      </trkpt>
      <trkpt lat="48.45951" lon="6.71826">
        <ele>290.46</ele>
        <time>2019-10-31T13:28:59Z</time>
      </trkpt>
      <trkpt lat="48.45955" lon="6.71813">
        <ele>289.97</ele>
        <time>2019-10-31T13:29:07Z</time>
      </trkpt>
      <trkpt lat="48.45958" lon="6.71799">
        <ele>289.49</ele>
        <time>2019-10-31T13:29:15Z</time>
      </trkpt>
      <trkpt lat="48.4596" lon="6.71785">
        <ele>289.01</ele>
        <time>2019-10-31T13:29:23Z</time>
      </trkpt>
      <trkpt lat="48.45962" lon="6.71772">
        <ele>288.53</ele>
        <time>2019-10-31T13:29:31Z</time>
      </trkpt>
      <trkpt lat="48.45965" lon="6.71758">
        <ele>287.57</ele>
        <time>2019-10-31T13:29:39Z</time>
      </trkpt>
      <trkpt lat="48.45968" lon="6.71744">
        <ele>286.61</ele>
        <time>2019-10-31T13:29:47Z</time>
      </trkpt>
      <trkpt lat="48.45971" lon="6.7173">
        <ele>286.13</ele>
        <time>2019-10-31T13:29:56Z</time>
      </trkpt>
      <trkpt lat="48.45974" lon="6.71716">
        <ele>285.17</ele>
        <time>2019-10-31T13:30:05Z</time>
      </trkpt>
      <trkpt lat="48.45978" lon="6.71704">
        <ele>284.69</ele>
        <time>2019-10-31T13:30:14Z</time>
      </trkpt>
      <trkpt lat="48.45984" lon="6.7169">
        <ele>283.73</ele>
        <time>2019-10-31T13:30:23Z</time>
      </trkpt>
      <trkpt lat="48.45989" lon="6.71677">
        <ele>283.25</ele>
        <time>2019-10-31T13:30:31Z</time>
      </trkpt>
      <trkpt lat="48.45995" lon="6.71664">
        <ele>282.77</ele>
        <time>2019-10-31T13:30:40Z</time>
      </trkpt>
      <trkpt lat="48.46001" lon="6.71652">
        <ele>281.8</ele>
        <time>2019-10-31T13:30:48Z</time>
      </trkpt>
      <trkpt lat="48.46006" lon="6.7164">
        <ele>281.32</ele>
        <time>2019-10-31T13:30:56Z</time>
      </trkpt>
      <trkpt lat="48.46011" lon="6.71628">
        <ele>280.36</ele>
        <time>2019-10-31T13:31:04Z</time>
      </trkpt>
      <trkpt lat="48.46016" lon="6.71615">
        <ele>279.88</ele>
        <time>2019-10-31T13:31:12Z</time>
      </trkpt>
      <trkpt lat="48.46022" lon="6.71602">
        <ele>278.92</ele>
        <time>2019-10-31T13:31:20Z</time>
      </trkpt>
      <trkpt lat="48.46026" lon="6.71589">
        <ele>278.44</ele>
        <time>2019-10-31T13:31:28Z</time>
      </trkpt>
      <trkpt lat="48.4603" lon="6.71576">
        <ele>277.48</ele>
        <time>2019-10-31T13:31:36Z</time>
      </trkpt>
      <trkpt lat="48.46034" lon="6.71562">
        <ele>277</ele>
        <time>2019-10-31T13:31:44Z</time>
      </trkpt>
      <trkpt lat="48.46037" lon="6.71548">
        <ele>277</ele>
        <time>2019-10-31T13:31:52Z</time>
      </trkpt>
      <trkpt lat="48.46041" lon="6.71536">
        <ele>275.56</ele>
        <time>2019-10-31T13:32:00Z</time>
      </trkpt>
      <trkpt lat="48.46044" lon="6.71523">
        <ele>275.56</ele>
        <time>2019-10-31T13:32:08Z</time>
      </trkpt>
      <trkpt lat="48.46047" lon="6.71509">
        <ele>275.07</ele>
        <time>2019-10-31T13:32:16Z</time>
      </trkpt>
      <trkpt lat="48.46051" lon="6.71496">
        <ele>275.07</ele>
        <time>2019-10-31T13:32:24Z</time>
      </trkpt>
      <trkpt lat="48.46055" lon="6.71484">
        <ele>275.07</ele>
        <time>2019-10-31T13:32:32Z</time>
      </trkpt>
      <trkpt lat="48.46059" lon="6.7147">
        <ele>275.56</ele>
        <time>2019-10-31T13:32:40Z</time>
      </trkpt>
      <trkpt lat="48.46064" lon="6.71457">
        <ele>276.04</ele>
        <time>2019-10-31T13:32:49Z</time>
      </trkpt>
      <trkpt lat="48.46067" lon="6.71443">
        <ele>276.52</ele>
        <time>2019-10-31T13:32:58Z</time>
      </trkpt>
      <trkpt lat="48.46072" lon="6.71431">
        <ele>277.48</ele>
        <time>2019-10-31T13:33:07Z</time>
      </trkpt>
      <trkpt lat="48.46073" lon="6.71416">
        <ele>277.48</ele>
        <time>2019-10-31T13:33:34Z</time>
      </trkpt>
      <trkpt lat="48.46065" lon="6.71406">
        <ele>278.44</ele>
        <time>2019-10-31T13:33:44Z</time>
      </trkpt>
      <trkpt lat="48.46057" lon="6.71402">
        <ele>278.92</ele>
        <time>2019-10-31T13:33:54Z</time>
      </trkpt>
      <trkpt lat="48.46048" lon="6.71396">
        <ele>278.92</ele>
        <time>2019-10-31T13:34:03Z</time>
      </trkpt>
      <trkpt lat="48.4604" lon="6.71389">
        <ele>279.4</ele>
        <time>2019-10-31T13:34:13Z</time>
      </trkpt>
      <trkpt lat="48.46032" lon="6.71382">
        <ele>278.92</ele>
        <time>2019-10-31T13:34:22Z</time>
      </trkpt>
      <trkpt lat="48.46025" lon="6.71373">
        <ele>279.4</ele>
        <time>2019-10-31T13:34:31Z</time>
      </trkpt>
      <trkpt lat="48.46016" lon="6.71365">
        <ele>279.4</ele>
        <time>2019-10-31T13:34:41Z</time>
      </trkpt>
      <trkpt lat="48.46008" lon="6.71356">
        <ele>279.4</ele>
        <time>2019-10-31T13:34:50Z</time>
      </trkpt>
      <trkpt lat="48.46001" lon="6.71347">
        <ele>279.4</ele>
        <time>2019-10-31T13:34:58Z</time>
      </trkpt>
      <trkpt lat="48.45994" lon="6.71338">
        <ele>279.4</ele>
        <time>2019-10-31T13:35:07Z</time>
      </trkpt>
      <trkpt lat="48.45987" lon="6.71329">
        <ele>279.4</ele>
        <time>2019-10-31T13:35:15Z</time>
      </trkpt>
      <trkpt lat="48.4598" lon="6.71318">
        <ele>279.4</ele>
        <time>2019-10-31T13:35:23Z</time>
      </trkpt>
      <trkpt lat="48.45974" lon="6.71306">
        <ele>278.92</ele>
        <time>2019-10-31T13:35:32Z</time>
      </trkpt>
      <trkpt lat="48.45967" lon="6.71296">
        <ele>278.44</ele>
        <time>2019-10-31T13:35:41Z</time>
      </trkpt>
      <trkpt lat="48.4596" lon="6.71287">
        <ele>278.44</ele>
        <time>2019-10-31T13:35:50Z</time>
      </trkpt>
      <trkpt lat="48.45954" lon="6.71278">
        <ele>278.44</ele>
        <time>2019-10-31T13:36:01Z</time>
      </trkpt>
      <trkpt lat="48.45945" lon="6.7126">
        <ele>278.44</ele>
        <time>2019-10-31T13:36:17Z</time>
      </trkpt>
      <trkpt lat="48.45935" lon="6.71242">
        <ele>278.44</ele>
        <time>2019-10-31T13:36:48Z</time>
      </trkpt>
      <trkpt lat="48.45924" lon="6.71238">
        <ele>278.92</ele>
        <time>2019-10-31T13:37:02Z</time>
      </trkpt>
      <trkpt lat="48.45906" lon="6.71245">
        <ele>278.92</ele>
        <time>2019-10-31T13:37:13Z</time>
      </trkpt>
      <trkpt lat="48.45897" lon="6.71264">
        <ele>279.4</ele>
        <time>2019-10-31T13:38:06Z</time>
      </trkpt>
      <trkpt lat="48.45894" lon="6.71275">
        <ele>279.88</ele>
        <time>2019-10-31T13:39:21Z</time>
      </trkpt>
      <trkpt lat="48.45892" lon="6.71288">
        <ele>280.36</ele>
        <time>2019-10-31T13:40:20Z</time>
      </trkpt>
      <trkpt lat="48.45896" lon="6.71302">
        <ele>280.84</ele>
        <time>2019-10-31T13:40:30Z</time>
      </trkpt>
      <trkpt lat="48.459" lon="6.71315">
        <ele>280.36</ele>
        <time>2019-10-31T13:40:39Z</time>
      </trkpt>
      <trkpt lat="48.45901" lon="6.7133">
        <ele>280.84</ele>
        <time>2019-10-31T13:40:49Z</time>
      </trkpt>
      <trkpt lat="48.45899" lon="6.71341">
        <ele>281.32</ele>
        <time>2019-10-31T13:41:03Z</time>
      </trkpt>
      <trkpt lat="48.45892" lon="6.7135">
        <ele>281.8</ele>
        <time>2019-10-31T13:41:12Z</time>
      </trkpt>
      <trkpt lat="48.45885" lon="6.71357">
        <ele>282.28</ele>
        <time>2019-10-31T13:41:24Z</time>
      </trkpt>
      <trkpt lat="48.45878" lon="6.71363">
        <ele>282.77</ele>
        <time>2019-10-31T13:41:33Z</time>
      </trkpt>
      <trkpt lat="48.45869" lon="6.71368">
        <ele>283.25</ele>
        <time>2019-10-31T13:41:42Z</time>
      </trkpt>
      <trkpt lat="48.4586" lon="6.71374">
        <ele>283.25</ele>
        <time>2019-10-31T13:41:51Z</time>
      </trkpt>
      <trkpt lat="48.4585" lon="6.71377">
        <ele>283.73</ele>
        <time>2019-10-31T13:42:00Z</time>
      </trkpt>
      <trkpt lat="48.4584" lon="6.71378">
        <ele>283.73</ele>
        <time>2019-10-31T13:42:09Z</time>
      </trkpt>
      <trkpt lat="48.45831" lon="6.71378">
        <ele>284.21</ele>
        <time>2019-10-31T13:42:18Z</time>
      </trkpt>
      <trkpt lat="48.45822" lon="6.71379">
        <ele>284.21</ele>
        <time>2019-10-31T13:42:26Z</time>
      </trkpt>
      <trkpt lat="48.45813" lon="6.71379">
        <ele>284.69</ele>
        <time>2019-10-31T13:42:34Z</time>
      </trkpt>
      <trkpt lat="48.45802" lon="6.7138">
        <ele>284.21</ele>
        <time>2019-10-31T13:42:43Z</time>
      </trkpt>
      <trkpt lat="48.45793" lon="6.7138">
        <ele>284.69</ele>
        <time>2019-10-31T13:42:51Z</time>
      </trkpt>
      <trkpt lat="48.45785" lon="6.7138">
        <ele>284.69</ele>
        <time>2019-10-31T13:42:59Z</time>
      </trkpt>
      <trkpt lat="48.45774" lon="6.71381">
        <ele>284.69</ele>
        <time>2019-10-31T13:43:07Z</time>
      </trkpt>
      <trkpt lat="48.45765" lon="6.71381">
        <ele>284.69</ele>
        <time>2019-10-31T13:43:15Z</time>
      </trkpt>
      <trkpt lat="48.45756" lon="6.71381">
        <ele>285.17</ele>
        <time>2019-10-31T13:43:24Z</time>
      </trkpt>
      <trkpt lat="48.45745" lon="6.71381">
        <ele>285.17</ele>
        <time>2019-10-31T13:43:34Z</time>
      </trkpt>
      <trkpt lat="48.45733" lon="6.71381">
        <ele>285.65</ele>
        <time>2019-10-31T13:43:43Z</time>
      </trkpt>
      <trkpt lat="48.45723" lon="6.71382">
        <ele>285.65</ele>
        <time>2019-10-31T13:43:51Z</time>
      </trkpt>
      <trkpt lat="48.45713" lon="6.71382">
        <ele>285.65</ele>
        <time>2019-10-31T13:43:59Z</time>
      </trkpt>
      <trkpt lat="48.45704" lon="6.71383">
        <ele>285.65</ele>
        <time>2019-10-31T13:44:07Z</time>
      </trkpt>
      <trkpt lat="48.45693" lon="6.71386">
        <ele>285.65</ele>
        <time>2019-10-31T13:44:15Z</time>
      </trkpt>
      <trkpt lat="48.45684" lon="6.71388">
        <ele>285.65</ele>
        <time>2019-10-31T13:44:22Z</time>
      </trkpt>
      <trkpt lat="48.45674" lon="6.7139">
        <ele>285.65</ele>
        <time>2019-10-31T13:44:30Z</time>
      </trkpt>
      <trkpt lat="48.45664" lon="6.71393">
        <ele>286.13</ele>
        <time>2019-10-31T13:44:38Z</time>
      </trkpt>
      <trkpt lat="48.45655" lon="6.71395">
        <ele>286.13</ele>
        <time>2019-10-31T13:44:46Z</time>
      </trkpt>
      <trkpt lat="48.45645" lon="6.71396">
        <ele>286.13</ele>
        <time>2019-10-31T13:44:54Z</time>
      </trkpt>
      <trkpt lat="48.45636" lon="6.71396">
        <ele>286.13</ele>
        <time>2019-10-31T13:45:02Z</time>
      </trkpt>
      <trkpt lat="48.45626" lon="6.71397">
        <ele>286.13</ele>
        <time>2019-10-31T13:45:10Z</time>
      </trkpt>
      <trkpt lat="48.45616" lon="6.71397">
        <ele>286.13</ele>
        <time>2019-10-31T13:45:19Z</time>
      </trkpt>
      <trkpt lat="48.45606" lon="6.71396">
        <ele>286.61</ele>
        <time>2019-10-31T13:45:27Z</time>
      </trkpt>
      <trkpt lat="48.45597" lon="6.71396">
        <ele>286.61</ele>
        <time>2019-10-31T13:45:35Z</time>
      </trkpt>
      <trkpt lat="48.45588" lon="6.71396">
        <ele>287.09</ele>
        <time>2019-10-31T13:45:43Z</time>
      </trkpt>
      <trkpt lat="48.45579" lon="6.71394">
        <ele>287.09</ele>
        <time>2019-10-31T13:45:51Z</time>
      </trkpt>
      <trkpt lat="48.4557" lon="6.71393">
        <ele>287.57</ele>
        <time>2019-10-31T13:45:59Z</time>
      </trkpt>
      <trkpt lat="48.45561" lon="6.71391">
        <ele>287.57</ele>
        <time>2019-10-31T13:46:07Z</time>
      </trkpt>
      <trkpt lat="48.45551" lon="6.7139">
        <ele>288.53</ele>
        <time>2019-10-31T13:46:16Z</time>
      </trkpt>
      <trkpt lat="48.45541" lon="6.71387">
        <ele>289.01</ele>
        <time>2019-10-31T13:46:25Z</time>
      </trkpt>
      <trkpt lat="48.45531" lon="6.71385">
        <ele>289.49</ele>
        <time>2019-10-31T13:46:34Z</time>
      </trkpt>
      <trkpt lat="48.45522" lon="6.71382">
        <ele>289.97</ele>
        <time>2019-10-31T13:46:43Z</time>
      </trkpt>
      <trkpt lat="48.45512" lon="6.71378">
        <ele>290.46</ele>
        <time>2019-10-31T13:46:52Z</time>
      </trkpt>
      <trkpt lat="48.45503" lon="6.71376">
        <ele>290.94</ele>
        <time>2019-10-31T13:47:01Z</time>
      </trkpt>
      <trkpt lat="48.45492" lon="6.71373">
        <ele>291.42</ele>
        <time>2019-10-31T13:47:10Z</time>
      </trkpt>
      <trkpt lat="48.45483" lon="6.7137">
        <ele>291.9</ele>
        <time>2019-10-31T13:47:19Z</time>
      </trkpt>
      <trkpt lat="48.45473" lon="6.71367">
        <ele>292.38</ele>
        <time>2019-10-31T13:47:28Z</time>
      </trkpt>
      <trkpt lat="48.45464" lon="6.71363">
        <ele>292.38</ele>
        <time>2019-10-31T13:47:37Z</time>
      </trkpt>
      <trkpt lat="48.45454" lon="6.71361">
        <ele>293.34</ele>
        <time>2019-10-31T13:47:46Z</time>
      </trkpt>
      <trkpt lat="48.45444" lon="6.71358">
        <ele>293.34</ele>
        <time>2019-10-31T13:47:55Z</time>
      </trkpt>
      <trkpt lat="48.45435" lon="6.71355">
        <ele>293.82</ele>
        <time>2019-10-31T13:48:03Z</time>
      </trkpt>
      <trkpt lat="48.45426" lon="6.71353">
        <ele>293.82</ele>
        <time>2019-10-31T13:48:11Z</time>
      </trkpt>
      <trkpt lat="48.45417" lon="6.7135">
        <ele>294.3</ele>
        <time>2019-10-31T13:48:20Z</time>
      </trkpt>
      <trkpt lat="48.45406" lon="6.71348">
        <ele>294.3</ele>
        <time>2019-10-31T13:48:29Z</time>
      </trkpt>
      <trkpt lat="48.45397" lon="6.71346">
        <ele>294.78</ele>
        <time>2019-10-31T13:48:38Z</time>
      </trkpt>
      <trkpt lat="48.45388" lon="6.71343">
        <ele>295.26</ele>
        <time>2019-10-31T13:48:46Z</time>
      </trkpt>
      <trkpt lat="48.45379" lon="6.7134">
        <ele>295.26</ele>
        <time>2019-10-31T13:48:54Z</time>
      </trkpt>
      <trkpt lat="48.4537" lon="6.71338">
        <ele>295.74</ele>
        <time>2019-10-31T13:49:03Z</time>
      </trkpt>
      <trkpt lat="48.4536" lon="6.71334">
        <ele>295.74</ele>
        <time>2019-10-31T13:49:12Z</time>
      </trkpt>
      <trkpt lat="48.45351" lon="6.71332">
        <ele>296.22</ele>
        <time>2019-10-31T13:49:21Z</time>
      </trkpt>
      <trkpt lat="48.45341" lon="6.71328">
        <ele>296.22</ele>
        <time>2019-10-31T13:49:30Z</time>
      </trkpt>
      <trkpt lat="48.45332" lon="6.71325">
        <ele>296.22</ele>
        <time>2019-10-31T13:49:39Z</time>
      </trkpt>
      <trkpt lat="48.45323" lon="6.71322">
        <ele>296.22</ele>
        <time>2019-10-31T13:49:48Z</time>
      </trkpt>
      <trkpt lat="48.45313" lon="6.71319">
        <ele>296.22</ele>
        <time>2019-10-31T13:49:57Z</time>
      </trkpt>
      <trkpt lat="48.45304" lon="6.71319">
        <ele>296.7</ele>
        <time>2019-10-31T13:50:06Z</time>
      </trkpt>
      <trkpt lat="48.45296" lon="6.71327">
        <ele>296.22</ele>
        <time>2019-10-31T13:50:15Z</time>
      </trkpt>
      <trkpt lat="48.45289" lon="6.71335">
        <ele>296.22</ele>
        <time>2019-10-31T13:50:25Z</time>
      </trkpt>
      <trkpt lat="48.45281" lon="6.71344">
        <ele>295.74</ele>
        <time>2019-10-31T13:50:38Z</time>
      </trkpt>
      <trkpt lat="48.45272" lon="6.71347">
        <ele>295.74</ele>
        <time>2019-10-31T13:50:46Z</time>
      </trkpt>
      <trkpt lat="48.45263" lon="6.71347">
        <ele>295.74</ele>
        <time>2019-10-31T13:50:54Z</time>
      </trkpt>
      <trkpt lat="48.45253" lon="6.71348">
        <ele>295.26</ele>
        <time>2019-10-31T13:51:02Z</time>
      </trkpt>
      <trkpt lat="48.45244" lon="6.71349">
        <ele>294.78</ele>
        <time>2019-10-31T13:51:10Z</time>
      </trkpt>
      <trkpt lat="48.45234" lon="6.7135">
        <ele>294.78</ele>
        <time>2019-10-31T13:51:19Z</time>
      </trkpt>
      <trkpt lat="48.45224" lon="6.71348">
        <ele>294.78</ele>
        <time>2019-10-31T13:51:28Z</time>
      </trkpt>
      <trkpt lat="48.45213" lon="6.71348">
        <ele>294.78</ele>
        <time>2019-10-31T13:51:37Z</time>
      </trkpt>
      <trkpt lat="48.45204" lon="6.71347">
        <ele>294.3</ele>
        <time>2019-10-31T13:51:46Z</time>
      </trkpt>
      <trkpt lat="48.45194" lon="6.71345">
        <ele>293.82</ele>
        <time>2019-10-31T13:51:55Z</time>
      </trkpt>
      <trkpt lat="48.45184" lon="6.71342">
        <ele>293.34</ele>
        <time>2019-10-31T13:52:04Z</time>
      </trkpt>
      <trkpt lat="48.45174" lon="6.71339">
        <ele>292.86</ele>
        <time>2019-10-31T13:52:13Z</time>
      </trkpt>
      <trkpt lat="48.45165" lon="6.71333">
        <ele>291.9</ele>
        <time>2019-10-31T13:52:22Z</time>
      </trkpt>
      <trkpt lat="48.45157" lon="6.71326">
        <ele>290.94</ele>
        <time>2019-10-31T13:52:31Z</time>
      </trkpt>
      <trkpt lat="48.45151" lon="6.71318">
        <ele>289.97</ele>
        <time>2019-10-31T13:52:41Z</time>
      </trkpt>
      <trkpt lat="48.45143" lon="6.71311">
        <ele>289.01</ele>
        <time>2019-10-31T13:52:53Z</time>
      </trkpt>
      <trkpt lat="48.45127" lon="6.71307">
        <ele>287.57</ele>
        <time>2019-10-31T13:53:11Z</time>
      </trkpt>
      <trkpt lat="48.45111" lon="6.71305">
        <ele>286.61</ele>
        <time>2019-10-31T13:53:23Z</time>
      </trkpt>
      <trkpt lat="48.45097" lon="6.71305">
        <ele>286.13</ele>
        <time>2019-10-31T13:53:33Z</time>
      </trkpt>
      <trkpt lat="48.45087" lon="6.71311">
        <ele>286.13</ele>
        <time>2019-10-31T13:53:42Z</time>
      </trkpt>
      <trkpt lat="48.45081" lon="6.71321">
        <ele>286.61</ele>
        <time>2019-10-31T13:53:55Z</time>
      </trkpt>
      <trkpt lat="48.45072" lon="6.71326">
        <ele>285.65</ele>
        <time>2019-10-31T13:54:07Z</time>
      </trkpt>
      <trkpt lat="48.45064" lon="6.71318">
        <ele>286.13</ele>
        <time>2019-10-31T13:54:16Z</time>
      </trkpt>
      <trkpt lat="48.45056" lon="6.71311">
        <ele>286.61</ele>
        <time>2019-10-31T13:54:25Z</time>
      </trkpt>
      <trkpt lat="48.45044" lon="6.71305">
        <ele>287.09</ele>
        <time>2019-10-31T13:54:34Z</time>
      </trkpt>
      <trkpt lat="48.45034" lon="6.71299">
        <ele>287.57</ele>
        <time>2019-10-31T13:54:43Z</time>
      </trkpt>
      <trkpt lat="48.45025" lon="6.71293">
        <ele>289.01</ele>
        <time>2019-10-31T13:54:54Z</time>
      </trkpt>
      <trkpt lat="48.45022" lon="6.71305">
        <ele>289.49</ele>
        <time>2019-10-31T13:55:14Z</time>
      </trkpt>
      <trkpt lat="48.45026" lon="6.71323">
        <ele>289.49</ele>
        <time>2019-10-31T13:56:34Z</time>
      </trkpt>
      <trkpt lat="48.45032" lon="6.71323">
        <ele>289.01</ele>
        <time>2019-10-31T13:57:06Z</time>
      </trkpt>
      <trkpt lat="48.45026" lon="6.71323">
        <ele>289.01</ele>
        <time>2019-10-31T13:59:07Z</time>
      </trkpt>
      <trkpt lat="48.45022" lon="6.71321">
        <ele>288.53</ele>
        <time>2019-10-31T14:00:04Z</time>
      </trkpt>
      <trkpt lat="48.45017" lon="6.71321">
        <ele>288.53</ele>
        <time>2019-10-31T14:01:10Z</time>
      </trkpt>
      <trkpt lat="48.4501" lon="6.71329">
        <ele>288.05</ele>
        <time>2019-10-31T14:01:21Z</time>
      </trkpt>
      <trkpt lat="48.45001" lon="6.71335">
        <ele>287.09</ele>
        <time>2019-10-31T14:01:31Z</time>
      </trkpt>
      <trkpt lat="48.44993" lon="6.71341">
        <ele>286.13</ele>
        <time>2019-10-31T14:01:41Z</time>
      </trkpt>
      <trkpt lat="48.44983" lon="6.7135">
        <ele>286.13</ele>
        <time>2019-10-31T14:01:51Z</time>
      </trkpt>
      <trkpt lat="48.44979" lon="6.71364">
        <ele>285.65</ele>
        <time>2019-10-31T14:02:00Z</time>
      </trkpt>
      <trkpt lat="48.44975" lon="6.7138">
        <ele>285.17</ele>
        <time>2019-10-31T14:02:09Z</time>
      </trkpt>
      <trkpt lat="48.44971" lon="6.71393">
        <ele>285.17</ele>
        <time>2019-10-31T14:02:17Z</time>
      </trkpt>
      <trkpt lat="48.44967" lon="6.71405">
        <ele>285.17</ele>
        <time>2019-10-31T14:02:25Z</time>
      </trkpt>
      <trkpt lat="48.4496" lon="6.71415">
        <ele>285.17</ele>
        <time>2019-10-31T14:02:34Z</time>
      </trkpt>
      <trkpt lat="48.44955" lon="6.71427">
        <ele>285.17</ele>
        <time>2019-10-31T14:02:43Z</time>
      </trkpt>
      <trkpt lat="48.44949" lon="6.71441">
        <ele>285.17</ele>
        <time>2019-10-31T14:02:53Z</time>
      </trkpt>
      <trkpt lat="48.44943" lon="6.71441">
        <ele>285.17</ele>
        <time>2019-10-31T14:03:40Z</time>
      </trkpt>
      <trkpt lat="48.44933" lon="6.7144">
        <ele>285.17</ele>
        <time>2019-10-31T14:03:49Z</time>
      </trkpt>
      <trkpt lat="48.44923" lon="6.71437">
        <ele>285.17</ele>
        <time>2019-10-31T14:03:58Z</time>
      </trkpt>
      <trkpt lat="48.44914" lon="6.71432">
        <ele>285.65</ele>
        <time>2019-10-31T14:04:06Z</time>
      </trkpt>
      <trkpt lat="48.44905" lon="6.71425">
        <ele>285.65</ele>
        <time>2019-10-31T14:04:14Z</time>
      </trkpt>
      <trkpt lat="48.44895" lon="6.7142">
        <ele>286.13</ele>
        <time>2019-10-31T14:04:22Z</time>
      </trkpt>
      <trkpt lat="48.44886" lon="6.71415">
        <ele>286.61</ele>
        <time>2019-10-31T14:04:30Z</time>
      </trkpt>
      <trkpt lat="48.44876" lon="6.7141">
        <ele>286.61</ele>
        <time>2019-10-31T14:04:39Z</time>
      </trkpt>
      <trkpt lat="48.44868" lon="6.71404">
        <ele>287.09</ele>
        <time>2019-10-31T14:04:47Z</time>
      </trkpt>
      <trkpt lat="48.44858" lon="6.71397">
        <ele>288.05</ele>
        <time>2019-10-31T14:04:55Z</time>
      </trkpt>
      <trkpt lat="48.44848" lon="6.71395">
        <ele>288.05</ele>
        <time>2019-10-31T14:05:03Z</time>
      </trkpt>
      <trkpt lat="48.44838" lon="6.71394">
        <ele>289.01</ele>
        <time>2019-10-31T14:05:12Z</time>
      </trkpt>
      <trkpt lat="48.44827" lon="6.71396">
        <ele>289.49</ele>
        <time>2019-10-31T14:05:21Z</time>
      </trkpt>
      <trkpt lat="48.44818" lon="6.71398">
        <ele>290.46</ele>
        <time>2019-10-31T14:05:30Z</time>
      </trkpt>
      <trkpt lat="48.44808" lon="6.71402">
        <ele>291.42</ele>
        <time>2019-10-31T14:05:39Z</time>
      </trkpt>
      <trkpt lat="48.44798" lon="6.71405">
        <ele>291.9</ele>
        <time>2019-10-31T14:05:48Z</time>
      </trkpt>
      <trkpt lat="48.44789" lon="6.71409">
        <ele>292.86</ele>
        <time>2019-10-31T14:05:56Z</time>
      </trkpt>
      <trkpt lat="48.4478" lon="6.71412">
        <ele>293.82</ele>
        <time>2019-10-31T14:06:05Z</time>
      </trkpt>
      <trkpt lat="48.4477" lon="6.71413">
        <ele>294.3</ele>
        <time>2019-10-31T14:06:13Z</time>
      </trkpt>
      <trkpt lat="48.44761" lon="6.71413">
        <ele>294.78</ele>
        <time>2019-10-31T14:06:21Z</time>
      </trkpt>
      <trkpt lat="48.44751" lon="6.71411">
        <ele>295.74</ele>
        <time>2019-10-31T14:06:29Z</time>
      </trkpt>
      <trkpt lat="48.44742" lon="6.71408">
        <ele>296.22</ele>
        <time>2019-10-31T14:06:37Z</time>
      </trkpt>
      <trkpt lat="48.44732" lon="6.71403">
        <ele>296.7</ele>
        <time>2019-10-31T14:06:46Z</time>
      </trkpt>
      <trkpt lat="48.44724" lon="6.71397">
        <ele>296.22</ele>
        <time>2019-10-31T14:06:54Z</time>
      </trkpt>
      <trkpt lat="48.44714" lon="6.7139">
        <ele>296.22</ele>
        <time>2019-10-31T14:07:02Z</time>
      </trkpt>
      <trkpt lat="48.44706" lon="6.71384">
        <ele>296.22</ele>
        <time>2019-10-31T14:07:10Z</time>
      </trkpt>
      <trkpt lat="48.44697" lon="6.71378">
        <ele>295.74</ele>
        <time>2019-10-31T14:07:18Z</time>
      </trkpt>
      <trkpt lat="48.44686" lon="6.71372">
        <ele>295.26</ele>
        <time>2019-10-31T14:07:27Z</time>
      </trkpt>
      <trkpt lat="48.44679" lon="6.71366">
        <ele>295.26</ele>
        <time>2019-10-31T14:07:35Z</time>
      </trkpt>
      <trkpt lat="48.4467" lon="6.71359">
        <ele>294.78</ele>
        <time>2019-10-31T14:07:43Z</time>
      </trkpt>
      <trkpt lat="48.44661" lon="6.71352">
        <ele>294.78</ele>
        <time>2019-10-31T14:07:51Z</time>
      </trkpt>
      <trkpt lat="48.44653" lon="6.71344">
        <ele>294.3</ele>
        <time>2019-10-31T14:07:59Z</time>
      </trkpt>
      <trkpt lat="48.44643" lon="6.71337">
        <ele>294.3</ele>
        <time>2019-10-31T14:08:07Z</time>
      </trkpt>
      <trkpt lat="48.44637" lon="6.71329">
        <ele>293.82</ele>
        <time>2019-10-31T14:08:15Z</time>
      </trkpt>
      <trkpt lat="48.44632" lon="6.71322">
        <ele>293.82</ele>
        <time>2019-10-31T14:08:23Z</time>
      </trkpt>
      <trkpt lat="48.44624" lon="6.71313">
        <ele>293.34</ele>
        <time>2019-10-31T14:08:33Z</time>
      </trkpt>
      <trkpt lat="48.44614" lon="6.71302">
        <ele>293.34</ele>
        <time>2019-10-31T14:08:43Z</time>
      </trkpt>
      <trkpt lat="48.44604" lon="6.71296">
        <ele>292.86</ele>
        <time>2019-10-31T14:08:51Z</time>
      </trkpt>
      <trkpt lat="48.44596" lon="6.7129">
        <ele>292.86</ele>
        <time>2019-10-31T14:08:59Z</time>
      </trkpt>
      <trkpt lat="48.44587" lon="6.71284">
        <ele>292.86</ele>
        <time>2019-10-31T14:09:07Z</time>
      </trkpt>
      <trkpt lat="48.44577" lon="6.7128">
        <ele>292.86</ele>
        <time>2019-10-31T14:09:15Z</time>
      </trkpt>
      <trkpt lat="48.44567" lon="6.71275">
        <ele>292.86</ele>
        <time>2019-10-31T14:09:23Z</time>
      </trkpt>
      <trkpt lat="48.44557" lon="6.71269">
        <ele>292.38</ele>
        <time>2019-10-31T14:09:31Z</time>
      </trkpt>
      <trkpt lat="48.44545" lon="6.71267">
        <ele>292.38</ele>
        <time>2019-10-31T14:09:39Z</time>
      </trkpt>
      <trkpt lat="48.44532" lon="6.71262">
        <ele>292.38</ele>
        <time>2019-10-31T14:09:49Z</time>
      </trkpt>
      <trkpt lat="48.44518" lon="6.71259">
        <ele>292.38</ele>
        <time>2019-10-31T14:10:01Z</time>
      </trkpt>
      <trkpt lat="48.44511" lon="6.71247">
        <ele>291.9</ele>
        <time>2019-10-31T14:10:17Z</time>
      </trkpt>
      <trkpt lat="48.44501" lon="6.71233">
        <ele>291.9</ele>
        <time>2019-10-31T14:10:36Z</time>
      </trkpt>
      <trkpt lat="48.4447" lon="6.71226">
        <ele>291.9</ele>
        <time>2019-10-31T14:10:49Z</time>
      </trkpt>
      <trkpt lat="48.4446" lon="6.71219">
        <ele>292.38</ele>
        <time>2019-10-31T14:11:00Z</time>
      </trkpt>
      <trkpt lat="48.44447" lon="6.71211">
        <ele>292.86</ele>
        <time>2019-10-31T14:11:12Z</time>
      </trkpt>
      <trkpt lat="48.44431" lon="6.71192">
        <ele>292.86</ele>
        <time>2019-10-31T14:11:29Z</time>
      </trkpt>
      <trkpt lat="48.44421" lon="6.71179">
        <ele>293.34</ele>
        <time>2019-10-31T14:11:45Z</time>
      </trkpt>
      <trkpt lat="48.44402" lon="6.71162">
        <ele>292.86</ele>
        <time>2019-10-31T14:12:02Z</time>
      </trkpt>
      <trkpt lat="48.44386" lon="6.71146">
        <ele>292.86</ele>
        <time>2019-10-31T14:12:20Z</time>
      </trkpt>
      <trkpt lat="48.44364" lon="6.71133">
        <ele>292.38</ele>
        <time>2019-10-31T14:12:37Z</time>
      </trkpt>
      <trkpt lat="48.44349" lon="6.71114">
        <ele>291.9</ele>
        <time>2019-10-31T14:12:56Z</time>
      </trkpt>
      <trkpt lat="48.44326" lon="6.71092">
        <ele>291.9</ele>
        <time>2019-10-31T14:13:16Z</time>
      </trkpt>
      <trkpt lat="48.44306" lon="6.71085">
        <ele>291.9</ele>
        <time>2019-10-31T14:13:30Z</time>
      </trkpt>
      <trkpt lat="48.44286" lon="6.71074">
        <ele>291.9</ele>
        <time>2019-10-31T14:13:43Z</time>
      </trkpt>
      <trkpt lat="48.44272" lon="6.71063">
        <ele>291.9</ele>
        <time>2019-10-31T14:13:59Z</time>
      </trkpt>
      <trkpt lat="48.44252" lon="6.71047">
        <ele>291.42</ele>
        <time>2019-10-31T14:14:21Z</time>
      </trkpt>
      <trkpt lat="48.4423" lon="6.71037">
        <ele>291.42</ele>
        <time>2019-10-31T14:14:39Z</time>
      </trkpt>
      <trkpt lat="48.44216" lon="6.71024">
        <ele>291.9</ele>
        <time>2019-10-31T14:14:56Z</time>
      </trkpt>
      <trkpt lat="48.44198" lon="6.71013">
        <ele>292.38</ele>
        <time>2019-10-31T14:15:13Z</time>
      </trkpt>
      <trkpt lat="48.44179" lon="6.71005">
        <ele>292.38</ele>
        <time>2019-10-31T14:15:27Z</time>
      </trkpt>
      <trkpt lat="48.44164" lon="6.70995">
        <ele>292.86</ele>
        <time>2019-10-31T14:15:41Z</time>
      </trkpt>
      <trkpt lat="48.44151" lon="6.70988">
        <ele>293.82</ele>
        <time>2019-10-31T14:15:55Z</time>
      </trkpt>
      <trkpt lat="48.44137" lon="6.70984">
        <ele>294.3</ele>
        <time>2019-10-31T14:16:08Z</time>
      </trkpt>
      <trkpt lat="48.44119" lon="6.7098">
        <ele>294.78</ele>
        <time>2019-10-31T14:16:18Z</time>
      </trkpt>
      <trkpt lat="48.44081" lon="6.70983">
        <ele>294.78</ele>
        <time>2019-10-31T14:16:28Z</time>
      </trkpt>
      <trkpt lat="48.44066" lon="6.70978">
        <ele>294.78</ele>
        <time>2019-10-31T14:16:36Z</time>
      </trkpt>
      <trkpt lat="48.44059" lon="6.70983">
        <ele>294.78</ele>
        <time>2019-10-31T14:16:48Z</time>
      </trkpt>
      <trkpt lat="48.44044" lon="6.70979">
        <ele>295.26</ele>
        <time>2019-10-31T14:16:58Z</time>
      </trkpt>
      <trkpt lat="48.44031" lon="6.70975">
        <ele>295.26</ele>
        <time>2019-10-31T14:17:08Z</time>
      </trkpt>
      <trkpt lat="48.44019" lon="6.7097">
        <ele>296.22</ele>
        <time>2019-10-31T14:17:22Z</time>
      </trkpt>
      <trkpt lat="48.44009" lon="6.70973">
        <ele>296.22</ele>
        <time>2019-10-31T14:17:34Z</time>
      </trkpt>
      <trkpt lat="48.43994" lon="6.7097">
        <ele>296.7</ele>
        <time>2019-10-31T14:17:45Z</time>
      </trkpt>
      <trkpt lat="48.43982" lon="6.70972">
        <ele>298.15</ele>
        <time>2019-10-31T14:17:58Z</time>
      </trkpt>
      <trkpt lat="48.4397" lon="6.70973">
        <ele>297.18</ele>
        <time>2019-10-31T14:18:12Z</time>
      </trkpt>
      <trkpt lat="48.43952" lon="6.70974">
        <ele>297.18</ele>
        <time>2019-10-31T14:18:28Z</time>
      </trkpt>
      <trkpt lat="48.43935" lon="6.70977">
        <ele>297.18</ele>
        <time>2019-10-31T14:18:45Z</time>
      </trkpt>
      <trkpt lat="48.43914" lon="6.70988">
        <ele>297.18</ele>
        <time>2019-10-31T14:19:09Z</time>
      </trkpt>
      <trkpt lat="48.43886" lon="6.70986">
        <ele>297.18</ele>
        <time>2019-10-31T14:19:50Z</time>
      </trkpt>
      <trkpt lat="48.43884" lon="6.70992">
        <ele>298.15</ele>
        <time>2019-10-31T14:23:35Z</time>
      </trkpt>
      <trkpt lat="48.43887" lon="6.71008">
        <ele>300.07</ele>
        <time>2019-10-31T14:23:59Z</time>
      </trkpt>
      <trkpt lat="48.43893" lon="6.71022">
        <ele>305.84</ele>
        <time>2019-10-31T14:24:45Z</time>
      </trkpt>
      <trkpt lat="48.43896" lon="6.71034">
        <ele>309.68</ele>
        <time>2019-10-31T14:25:10Z</time>
      </trkpt>
      <trkpt lat="48.439" lon="6.71054">
        <ele>312.57</ele>
        <time>2019-10-31T14:25:33Z</time>
      </trkpt>
      <trkpt lat="48.43901" lon="6.71071">
        <ele>314.49</ele>
        <time>2019-10-31T14:25:58Z</time>
      </trkpt>
      <trkpt lat="48.43905" lon="6.71089">
        <ele>315.45</ele>
        <time>2019-10-31T14:26:14Z</time>
      </trkpt>
      <trkpt lat="48.43907" lon="6.71102">
        <ele>316.89</ele>
        <time>2019-10-31T14:26:32Z</time>
      </trkpt>
      <trkpt lat="48.43923" lon="6.71125">
        <ele>320.26</ele>
        <time>2019-10-31T14:26:51Z</time>
      </trkpt>
      <trkpt lat="48.43935" lon="6.71143">
        <ele>323.14</ele>
        <time>2019-10-31T14:27:16Z</time>
      </trkpt>
      <trkpt lat="48.43943" lon="6.7116">
        <ele>324.58</ele>
        <time>2019-10-31T14:27:39Z</time>
      </trkpt>
      <trkpt lat="48.43951" lon="6.71181">
        <ele>325.54</ele>
        <time>2019-10-31T14:28:05Z</time>
      </trkpt>
      <trkpt lat="48.43962" lon="6.71191">
        <ele>326.5</ele>
        <time>2019-10-31T14:28:19Z</time>
      </trkpt>
      <trkpt lat="48.43973" lon="6.71191">
        <ele>326.99</ele>
        <time>2019-10-31T14:28:31Z</time>
      </trkpt>
      <trkpt lat="48.43983" lon="6.71197">
        <ele>328.43</ele>
        <time>2019-10-31T14:28:44Z</time>
      </trkpt>
      <trkpt lat="48.43994" lon="6.71201">
        <ele>329.87</ele>
        <time>2019-10-31T14:28:59Z</time>
      </trkpt>
      <trkpt lat="48.44008" lon="6.71214">
        <ele>330.35</ele>
        <time>2019-10-31T14:29:15Z</time>
      </trkpt>
      <trkpt lat="48.44018" lon="6.71217">
        <ele>330.83</ele>
        <time>2019-10-31T14:29:25Z</time>
      </trkpt>
      <trkpt lat="48.44029" lon="6.7122">
        <ele>330.35</ele>
        <time>2019-10-31T14:29:36Z</time>
      </trkpt>
      <trkpt lat="48.44037" lon="6.71221">
        <ele>330.83</ele>
        <time>2019-10-31T14:29:44Z</time>
      </trkpt>
      <trkpt lat="48.44046" lon="6.71228">
        <ele>330.83</ele>
        <time>2019-10-31T14:29:57Z</time>
      </trkpt>
      <trkpt lat="48.44058" lon="6.71231">
        <ele>330.35</ele>
        <time>2019-10-31T14:30:08Z</time>
      </trkpt>
      <trkpt lat="48.44067" lon="6.71232">
        <ele>330.35</ele>
        <time>2019-10-31T14:30:17Z</time>
      </trkpt>
      <trkpt lat="48.44075" lon="6.71242">
        <ele>330.35</ele>
        <time>2019-10-31T14:30:29Z</time>
      </trkpt>
      <trkpt lat="48.44085" lon="6.71252">
        <ele>330.83</ele>
        <time>2019-10-31T14:30:41Z</time>
      </trkpt>
      <trkpt lat="48.44093" lon="6.71261">
        <ele>330.83</ele>
        <time>2019-10-31T14:30:52Z</time>
      </trkpt>
      <trkpt lat="48.44101" lon="6.71277">
        <ele>331.79</ele>
        <time>2019-10-31T14:31:09Z</time>
      </trkpt>
      <trkpt lat="48.4411" lon="6.71292">
        <ele>332.27</ele>
        <time>2019-10-31T14:31:25Z</time>
      </trkpt>
      <trkpt lat="48.44117" lon="6.7131">
        <ele>332.75</ele>
        <time>2019-10-31T14:31:40Z</time>
      </trkpt>
      <trkpt lat="48.44125" lon="6.71327">
        <ele>333.71</ele>
        <time>2019-10-31T14:31:57Z</time>
      </trkpt>
      <trkpt lat="48.44137" lon="6.71343">
        <ele>335.64</ele>
        <time>2019-10-31T14:32:19Z</time>
      </trkpt>
      <trkpt lat="48.44143" lon="6.71358">
        <ele>337.56</ele>
        <time>2019-10-31T14:32:37Z</time>
      </trkpt>
      <trkpt lat="48.44139" lon="6.71375">
        <ele>338.52</ele>
        <time>2019-10-31T14:32:49Z</time>
      </trkpt>
      <trkpt lat="48.44137" lon="6.71394">
        <ele>339</ele>
        <time>2019-10-31T14:33:04Z</time>
      </trkpt>
      <trkpt lat="48.44133" lon="6.7141">
        <ele>339</ele>
        <time>2019-10-31T14:33:14Z</time>
      </trkpt>
      <trkpt lat="48.44127" lon="6.71424">
        <ele>339</ele>
        <time>2019-10-31T14:33:26Z</time>
      </trkpt>
      <trkpt lat="48.44126" lon="6.71443">
        <ele>339</ele>
        <time>2019-10-31T14:33:38Z</time>
      </trkpt>
      <trkpt lat="48.44123" lon="6.71462">
        <ele>338.52</ele>
        <time>2019-10-31T14:33:54Z</time>
      </trkpt>
      <trkpt lat="48.44117" lon="6.71478">
        <ele>337.56</ele>
        <time>2019-10-31T14:34:07Z</time>
      </trkpt>
      <trkpt lat="48.44123" lon="6.71493">
        <ele>338.04</ele>
        <time>2019-10-31T14:34:20Z</time>
      </trkpt>
      <trkpt lat="48.4413" lon="6.71511">
        <ele>338.52</ele>
        <time>2019-10-31T14:34:33Z</time>
      </trkpt>
      <trkpt lat="48.44137" lon="6.71527">
        <ele>339</ele>
        <time>2019-10-31T14:34:46Z</time>
      </trkpt>
      <trkpt lat="48.44144" lon="6.71544">
        <ele>339.48</ele>
        <time>2019-10-31T14:34:58Z</time>
      </trkpt>
      <trkpt lat="48.44148" lon="6.71562">
        <ele>339.96</ele>
        <time>2019-10-31T14:35:14Z</time>
      </trkpt>
      <trkpt lat="48.44148" lon="6.71585">
        <ele>339.96</ele>
        <time>2019-10-31T14:35:30Z</time>
      </trkpt>
      <trkpt lat="48.44142" lon="6.71604">
        <ele>339</ele>
        <time>2019-10-31T14:35:47Z</time>
      </trkpt>
      <trkpt lat="48.44136" lon="6.7162">
        <ele>338.52</ele>
        <time>2019-10-31T14:36:00Z</time>
      </trkpt>
      <trkpt lat="48.44132" lon="6.71635">
        <ele>337.56</ele>
        <time>2019-10-31T14:36:14Z</time>
      </trkpt>
      <trkpt lat="48.44122" lon="6.71643">
        <ele>336.6</ele>
        <time>2019-10-31T14:36:24Z</time>
      </trkpt>
      <trkpt lat="48.44116" lon="6.71656">
        <ele>335.64</ele>
        <time>2019-10-31T14:36:35Z</time>
      </trkpt>
      <trkpt lat="48.44109" lon="6.71668">
        <ele>335.64</ele>
        <time>2019-10-31T14:36:45Z</time>
      </trkpt>
      <trkpt lat="48.44105" lon="6.71687">
        <ele>336.12</ele>
        <time>2019-10-31T14:36:58Z</time>
      </trkpt>
      <trkpt lat="48.44109" lon="6.71701">
        <ele>337.08</ele>
        <time>2019-10-31T14:37:10Z</time>
      </trkpt>
      <trkpt lat="48.44126" lon="6.71718">
        <ele>337.56</ele>
        <time>2019-10-31T14:37:23Z</time>
      </trkpt>
      <trkpt lat="48.44136" lon="6.71728">
        <ele>339</ele>
        <time>2019-10-31T14:37:38Z</time>
      </trkpt>
      <trkpt lat="48.44144" lon="6.71744">
        <ele>340.44</ele>
        <time>2019-10-31T14:37:57Z</time>
      </trkpt>
      <trkpt lat="48.44152" lon="6.71757">
        <ele>341.41</ele>
        <time>2019-10-31T14:38:11Z</time>
      </trkpt>
      <trkpt lat="48.44158" lon="6.71767">
        <ele>341.89</ele>
        <time>2019-10-31T14:38:27Z</time>
      </trkpt>
      <trkpt lat="48.44172" lon="6.71778">
        <ele>343.33</ele>
        <time>2019-10-31T14:39:10Z</time>
      </trkpt>
      <trkpt lat="48.44175" lon="6.71791">
        <ele>342.85</ele>
        <time>2019-10-31T14:41:51Z</time>
      </trkpt>
      <trkpt lat="48.4418" lon="6.71807">
        <ele>343.33</ele>
        <time>2019-10-31T14:42:04Z</time>
      </trkpt>
      <trkpt lat="48.44185" lon="6.71823">
        <ele>344.29</ele>
        <time>2019-10-31T14:42:17Z</time>
      </trkpt>
      <trkpt lat="48.4419" lon="6.71842">
        <ele>345.25</ele>
        <time>2019-10-31T14:42:27Z</time>
      </trkpt>
      <trkpt lat="48.44195" lon="6.71852">
        <ele>346.21</ele>
        <time>2019-10-31T14:42:37Z</time>
      </trkpt>
      <trkpt lat="48.44203" lon="6.71865">
        <ele>347.17</ele>
        <time>2019-10-31T14:42:52Z</time>
      </trkpt>
      <trkpt lat="48.44213" lon="6.71878">
        <ele>349.1</ele>
        <time>2019-10-31T14:43:06Z</time>
      </trkpt>
      <trkpt lat="48.44221" lon="6.71889">
        <ele>349.58</ele>
        <time>2019-10-31T14:43:18Z</time>
      </trkpt>
      <trkpt lat="48.44229" lon="6.71899">
        <ele>350.54</ele>
        <time>2019-10-31T14:43:34Z</time>
      </trkpt>
      <trkpt lat="48.44235" lon="6.7191">
        <ele>351.02</ele>
        <time>2019-10-31T14:43:44Z</time>
      </trkpt>
      <trkpt lat="48.44243" lon="6.71919">
        <ele>351.5</ele>
        <time>2019-10-31T14:43:59Z</time>
      </trkpt>
      <trkpt lat="48.44249" lon="6.71928">
        <ele>351.5</ele>
        <time>2019-10-31T14:44:08Z</time>
      </trkpt>
      <trkpt lat="48.44255" lon="6.71939">
        <ele>351.98</ele>
        <time>2019-10-31T14:44:17Z</time>
      </trkpt>
      <trkpt lat="48.44261" lon="6.71949">
        <ele>352.46</ele>
        <time>2019-10-31T14:44:26Z</time>
      </trkpt>
      <trkpt lat="48.44267" lon="6.7196">
        <ele>352.94</ele>
        <time>2019-10-31T14:44:36Z</time>
      </trkpt>
      <trkpt lat="48.44272" lon="6.71972">
        <ele>352.94</ele>
        <time>2019-10-31T14:44:46Z</time>
      </trkpt>
      <trkpt lat="48.44277" lon="6.71984">
        <ele>353.9</ele>
        <time>2019-10-31T14:44:56Z</time>
      </trkpt>
      <trkpt lat="48.44281" lon="6.71999">
        <ele>354.38</ele>
        <time>2019-10-31T14:45:07Z</time>
      </trkpt>
      <trkpt lat="48.44283" lon="6.72014">
        <ele>354.86</ele>
        <time>2019-10-31T14:45:19Z</time>
      </trkpt>
      <trkpt lat="48.44281" lon="6.72027">
        <ele>354.86</ele>
        <time>2019-10-31T14:45:41Z</time>
      </trkpt>
      <trkpt lat="48.44286" lon="6.72043">
        <ele>355.83</ele>
        <time>2019-10-31T14:45:51Z</time>
      </trkpt>
      <trkpt lat="48.44289" lon="6.72058">
        <ele>355.83</ele>
        <time>2019-10-31T14:46:00Z</time>
      </trkpt>
      <trkpt lat="48.44291" lon="6.72072">
        <ele>355.83</ele>
        <time>2019-10-31T14:46:11Z</time>
      </trkpt>
      <trkpt lat="48.44295" lon="6.72083">
        <ele>356.31</ele>
        <time>2019-10-31T14:46:26Z</time>
      </trkpt>
      <trkpt lat="48.44297" lon="6.72096">
        <ele>356.31</ele>
        <time>2019-10-31T14:46:35Z</time>
      </trkpt>
      <trkpt lat="48.443" lon="6.72111">
        <ele>356.79</ele>
        <time>2019-10-31T14:46:44Z</time>
      </trkpt>
      <trkpt lat="48.44304" lon="6.72125">
        <ele>356.79</ele>
        <time>2019-10-31T14:46:53Z</time>
      </trkpt>
      <trkpt lat="48.44309" lon="6.72138">
        <ele>356.79</ele>
        <time>2019-10-31T14:47:01Z</time>
      </trkpt>
      <trkpt lat="48.44317" lon="6.72148">
        <ele>356.79</ele>
        <time>2019-10-31T14:47:09Z</time>
      </trkpt>
      <trkpt lat="48.44325" lon="6.72156">
        <ele>356.31</ele>
        <time>2019-10-31T14:47:17Z</time>
      </trkpt>
      <trkpt lat="48.44333" lon="6.72164">
        <ele>356.31</ele>
        <time>2019-10-31T14:47:25Z</time>
      </trkpt>
      <trkpt lat="48.44341" lon="6.72174">
        <ele>355.83</ele>
        <time>2019-10-31T14:47:34Z</time>
      </trkpt>
      <trkpt lat="48.44348" lon="6.72183">
        <ele>355.34</ele>
        <time>2019-10-31T14:47:43Z</time>
      </trkpt>
      <trkpt lat="48.44356" lon="6.72192">
        <ele>354.86</ele>
        <time>2019-10-31T14:47:52Z</time>
      </trkpt>
      <trkpt lat="48.44364" lon="6.72201">
        <ele>354.86</ele>
        <time>2019-10-31T14:48:01Z</time>
      </trkpt>
      <trkpt lat="48.44371" lon="6.7221">
        <ele>354.38</ele>
        <time>2019-10-31T14:48:10Z</time>
      </trkpt>
      <trkpt lat="48.44378" lon="6.7222">
        <ele>353.9</ele>
        <time>2019-10-31T14:48:19Z</time>
      </trkpt>
      <trkpt lat="48.44387" lon="6.72227">
        <ele>353.42</ele>
        <time>2019-10-31T14:48:28Z</time>
      </trkpt>
      <trkpt lat="48.44395" lon="6.72236">
        <ele>352.94</ele>
        <time>2019-10-31T14:48:37Z</time>
      </trkpt>
      <trkpt lat="48.44403" lon="6.72243">
        <ele>352.46</ele>
        <time>2019-10-31T14:48:45Z</time>
      </trkpt>
      <trkpt lat="48.4441" lon="6.72252">
        <ele>351.98</ele>
        <time>2019-10-31T14:48:53Z</time>
      </trkpt>
      <trkpt lat="48.44417" lon="6.7226">
        <ele>351.5</ele>
        <time>2019-10-31T14:49:01Z</time>
      </trkpt>
      <trkpt lat="48.44425" lon="6.72269">
        <ele>351.5</ele>
        <time>2019-10-31T14:49:10Z</time>
      </trkpt>
      <trkpt lat="48.44433" lon="6.72277">
        <ele>351.02</ele>
        <time>2019-10-31T14:49:18Z</time>
      </trkpt>
      <trkpt lat="48.4444" lon="6.72286">
        <ele>351.02</ele>
        <time>2019-10-31T14:49:26Z</time>
      </trkpt>
      <trkpt lat="48.44448" lon="6.72294">
        <ele>350.54</ele>
        <time>2019-10-31T14:49:51Z</time>
      </trkpt>
      <trkpt lat="48.44455" lon="6.72303">
        <ele>350.54</ele>
        <time>2019-10-31T14:50:00Z</time>
      </trkpt>
      <trkpt lat="48.44462" lon="6.72311">
        <ele>350.06</ele>
        <time>2019-10-31T14:50:15Z</time>
      </trkpt>
      <trkpt lat="48.44469" lon="6.7232">
        <ele>350.06</ele>
        <time>2019-10-31T14:50:24Z</time>
      </trkpt>
      <trkpt lat="48.44476" lon="6.72331">
        <ele>349.58</ele>
        <time>2019-10-31T14:50:33Z</time>
      </trkpt>
      <trkpt lat="48.4448" lon="6.72345">
        <ele>349.1</ele>
        <time>2019-10-31T14:50:42Z</time>
      </trkpt>
      <trkpt lat="48.44485" lon="6.72359">
        <ele>349.1</ele>
        <time>2019-10-31T14:50:51Z</time>
      </trkpt>
      <trkpt lat="48.44489" lon="6.72371">
        <ele>348.62</ele>
        <time>2019-10-31T14:51:00Z</time>
      </trkpt>
      <trkpt lat="48.44494" lon="6.72384">
        <ele>348.62</ele>
        <time>2019-10-31T14:51:09Z</time>
      </trkpt>
      <trkpt lat="48.445" lon="6.72396">
        <ele>348.13</ele>
        <time>2019-10-31T14:51:17Z</time>
      </trkpt>
      <trkpt lat="48.44508" lon="6.72403">
        <ele>348.13</ele>
        <time>2019-10-31T14:51:25Z</time>
      </trkpt>
      <trkpt lat="48.44516" lon="6.72412">
        <ele>347.65</ele>
        <time>2019-10-31T14:51:33Z</time>
      </trkpt>
      <trkpt lat="48.44524" lon="6.72421">
        <ele>347.17</ele>
        <time>2019-10-31T14:51:42Z</time>
      </trkpt>
      <trkpt lat="48.44533" lon="6.7243">
        <ele>346.69</ele>
        <time>2019-10-31T14:51:51Z</time>
      </trkpt>
      <trkpt lat="48.44541" lon="6.72437">
        <ele>346.21</ele>
        <time>2019-10-31T14:51:59Z</time>
      </trkpt>
      <trkpt lat="48.44549" lon="6.72445">
        <ele>345.73</ele>
        <time>2019-10-31T14:52:07Z</time>
      </trkpt>
      <trkpt lat="48.44557" lon="6.72453">
        <ele>345.25</ele>
        <time>2019-10-31T14:52:16Z</time>
      </trkpt>
      <trkpt lat="48.44565" lon="6.72462">
        <ele>344.29</ele>
        <time>2019-10-31T14:52:24Z</time>
      </trkpt>
      <trkpt lat="48.44573" lon="6.72468">
        <ele>343.81</ele>
        <time>2019-10-31T14:52:32Z</time>
      </trkpt>
      <trkpt lat="48.44581" lon="6.72476">
        <ele>343.33</ele>
        <time>2019-10-31T14:52:40Z</time>
      </trkpt>
      <trkpt lat="48.4459" lon="6.72482">
        <ele>342.85</ele>
        <time>2019-10-31T14:52:48Z</time>
      </trkpt>
      <trkpt lat="48.44598" lon="6.7249">
        <ele>342.37</ele>
        <time>2019-10-31T14:52:56Z</time>
      </trkpt>
      <trkpt lat="48.44606" lon="6.72496">
        <ele>341.89</ele>
        <time>2019-10-31T14:53:03Z</time>
      </trkpt>
      <trkpt lat="48.44614" lon="6.72505">
        <ele>341.41</ele>
        <time>2019-10-31T14:53:11Z</time>
      </trkpt>
      <trkpt lat="48.44621" lon="6.72514">
        <ele>340.92</ele>
        <time>2019-10-31T14:53:19Z</time>
      </trkpt>
      <trkpt lat="48.4463" lon="6.72522">
        <ele>340.44</ele>
        <time>2019-10-31T14:53:27Z</time>
      </trkpt>
      <trkpt lat="48.44639" lon="6.72529">
        <ele>339.96</ele>
        <time>2019-10-31T14:53:34Z</time>
      </trkpt>
      <trkpt lat="48.44646" lon="6.72537">
        <ele>339</ele>
        <time>2019-10-31T14:53:41Z</time>
      </trkpt>
      <trkpt lat="48.44654" lon="6.72546">
        <ele>338.52</ele>
        <time>2019-10-31T14:53:48Z</time>
      </trkpt>
      <trkpt lat="48.44662" lon="6.72553">
        <ele>338.04</ele>
        <time>2019-10-31T14:53:55Z</time>
      </trkpt>
      <trkpt lat="48.4467" lon="6.72558">
        <ele>337.56</ele>
        <time>2019-10-31T14:54:02Z</time>
      </trkpt>
      <trkpt lat="48.44678" lon="6.72566">
        <ele>336.6</ele>
        <time>2019-10-31T14:54:10Z</time>
      </trkpt>
      <trkpt lat="48.44686" lon="6.72574">
        <ele>335.64</ele>
        <time>2019-10-31T14:54:18Z</time>
      </trkpt>
      <trkpt lat="48.44695" lon="6.72583">
        <ele>335.16</ele>
        <time>2019-10-31T14:54:27Z</time>
      </trkpt>
      <trkpt lat="48.44701" lon="6.72592">
        <ele>334.68</ele>
        <time>2019-10-31T14:54:35Z</time>
      </trkpt>
      <trkpt lat="48.44708" lon="6.72602">
        <ele>333.71</ele>
        <time>2019-10-31T14:54:44Z</time>
      </trkpt>
      <trkpt lat="48.44715" lon="6.72609">
        <ele>332.75</ele>
        <time>2019-10-31T14:55:33Z</time>
      </trkpt>
      <trkpt lat="48.44715" lon="6.72621">
        <ele>331.79</ele>
        <time>2019-10-31T14:57:44Z</time>
      </trkpt>
      <trkpt lat="48.4471" lon="6.72631">
        <ele>331.79</ele>
        <time>2019-10-31T14:57:54Z</time>
      </trkpt>
      <trkpt lat="48.44704" lon="6.72642">
        <ele>331.79</ele>
        <time>2019-10-31T14:58:03Z</time>
      </trkpt>
      <trkpt lat="48.44697" lon="6.72655">
        <ele>331.79</ele>
        <time>2019-10-31T14:58:13Z</time>
      </trkpt>
      <trkpt lat="48.44691" lon="6.72668">
        <ele>331.79</ele>
        <time>2019-10-31T14:58:23Z</time>
      </trkpt>
      <trkpt lat="48.44684" lon="6.7268">
        <ele>331.79</ele>
        <time>2019-10-31T14:58:33Z</time>
      </trkpt>
      <trkpt lat="48.44678" lon="6.72694">
        <ele>331.79</ele>
        <time>2019-10-31T14:58:44Z</time>
      </trkpt>
      <trkpt lat="48.44666" lon="6.72708">
        <ele>331.79</ele>
        <time>2019-10-31T14:58:55Z</time>
      </trkpt>
      <trkpt lat="48.44659" lon="6.72719">
        <ele>331.79</ele>
        <time>2019-10-31T14:59:03Z</time>
      </trkpt>
      <trkpt lat="48.44653" lon="6.72733">
        <ele>331.79</ele>
        <time>2019-10-31T14:59:11Z</time>
      </trkpt>
      <trkpt lat="48.44648" lon="6.72748">
        <ele>331.31</ele>
        <time>2019-10-31T14:59:21Z</time>
      </trkpt>
      <trkpt lat="48.44642" lon="6.72762">
        <ele>331.79</ele>
        <time>2019-10-31T14:59:31Z</time>
      </trkpt>
      <trkpt lat="48.44637" lon="6.72775">
        <ele>331.79</ele>
        <time>2019-10-31T14:59:40Z</time>
      </trkpt>
      <trkpt lat="48.44632" lon="6.72785">
        <ele>331.79</ele>
        <time>2019-10-31T14:59:49Z</time>
      </trkpt>
      <trkpt lat="48.44627" lon="6.72798">
        <ele>332.27</ele>
        <time>2019-10-31T14:59:58Z</time>
      </trkpt>
      <trkpt lat="48.44623" lon="6.72812">
        <ele>332.27</ele>
        <time>2019-10-31T15:00:07Z</time>
      </trkpt>
      <trkpt lat="48.44619" lon="6.72827">
        <ele>331.31</ele>
        <time>2019-10-31T15:00:17Z</time>
      </trkpt>
      <trkpt lat="48.44612" lon="6.72842">
        <ele>331.31</ele>
        <time>2019-10-31T15:00:34Z</time>
      </trkpt>
      <trkpt lat="48.44605" lon="6.72853">
        <ele>330.35</ele>
        <time>2019-10-31T15:00:45Z</time>
      </trkpt>
      <trkpt lat="48.44598" lon="6.72868">
        <ele>329.87</ele>
        <time>2019-10-31T15:00:59Z</time>
      </trkpt>
      <trkpt lat="48.44595" lon="6.72882">
        <ele>328.91</ele>
        <time>2019-10-31T15:01:09Z</time>
      </trkpt>
      <trkpt lat="48.4459" lon="6.72895">
        <ele>327.95</ele>
        <time>2019-10-31T15:01:18Z</time>
      </trkpt>
      <trkpt lat="48.44586" lon="6.7291">
        <ele>326.99</ele>
        <time>2019-10-31T15:01:28Z</time>
      </trkpt>
      <trkpt lat="48.44582" lon="6.72922">
        <ele>326.02</ele>
        <time>2019-10-31T15:01:37Z</time>
      </trkpt>
      <trkpt lat="48.44576" lon="6.72932">
        <ele>325.54</ele>
        <time>2019-10-31T15:01:46Z</time>
      </trkpt>
      <trkpt lat="48.44568" lon="6.72935">
        <ele>325.06</ele>
        <time>2019-10-31T15:01:55Z</time>
      </trkpt>
      <trkpt lat="48.44559" lon="6.72939">
        <ele>324.58</ele>
        <time>2019-10-31T15:02:04Z</time>
      </trkpt>
      <trkpt lat="48.4455" lon="6.72939">
        <ele>324.1</ele>
        <time>2019-10-31T15:02:13Z</time>
      </trkpt>
      <trkpt lat="48.44541" lon="6.72943">
        <ele>323.14</ele>
        <time>2019-10-31T15:02:22Z</time>
      </trkpt>
      <trkpt lat="48.44532" lon="6.72947">
        <ele>322.66</ele>
        <time>2019-10-31T15:02:33Z</time>
      </trkpt>
      <trkpt lat="48.44525" lon="6.72953">
        <ele>321.7</ele>
        <time>2019-10-31T15:02:42Z</time>
      </trkpt>
      <trkpt lat="48.44517" lon="6.72962">
        <ele>320.74</ele>
        <time>2019-10-31T15:02:52Z</time>
      </trkpt>
      <trkpt lat="48.44511" lon="6.72972">
        <ele>320.26</ele>
        <time>2019-10-31T15:03:02Z</time>
      </trkpt>
      <trkpt lat="48.44506" lon="6.72984">
        <ele>320.26</ele>
        <time>2019-10-31T15:03:14Z</time>
      </trkpt>
      <trkpt lat="48.44501" lon="6.72996">
        <ele>319.3</ele>
        <time>2019-10-31T15:03:27Z</time>
      </trkpt>
      <trkpt lat="48.44499" lon="6.73011">
        <ele>318.81</ele>
        <time>2019-10-31T15:03:39Z</time>
      </trkpt>
      <trkpt lat="48.44498" lon="6.73025">
        <ele>318.33</ele>
        <time>2019-10-31T15:03:48Z</time>
      </trkpt>
      <trkpt lat="48.44495" lon="6.73039">
        <ele>317.85</ele>
        <time>2019-10-31T15:03:57Z</time>
      </trkpt>
      <trkpt lat="48.44493" lon="6.73054">
        <ele>317.37</ele>
        <time>2019-10-31T15:04:07Z</time>
      </trkpt>
      <trkpt lat="48.44491" lon="6.73067">
        <ele>317.37</ele>
        <time>2019-10-31T15:04:16Z</time>
      </trkpt>
      <trkpt lat="48.44485" lon="6.73083">
        <ele>316.89</ele>
        <time>2019-10-31T15:04:25Z</time>
      </trkpt>
      <trkpt lat="48.44479" lon="6.73105">
        <ele>316.41</ele>
        <time>2019-10-31T15:04:34Z</time>
      </trkpt>
      <trkpt lat="48.44477" lon="6.7312">
        <ele>315.93</ele>
        <time>2019-10-31T15:04:43Z</time>
      </trkpt>
      <trkpt lat="48.44472" lon="6.73135">
        <ele>315.45</ele>
        <time>2019-10-31T15:04:53Z</time>
      </trkpt>
      <trkpt lat="48.44466" lon="6.73146">
        <ele>315.45</ele>
        <time>2019-10-31T15:05:02Z</time>
      </trkpt>
      <trkpt lat="48.4446" lon="6.73155">
        <ele>314.97</ele>
        <time>2019-10-31T15:05:12Z</time>
      </trkpt>
      <trkpt lat="48.44453" lon="6.73161">
        <ele>314.01</ele>
        <time>2019-10-31T15:05:22Z</time>
      </trkpt>
      <trkpt lat="48.44446" lon="6.73163">
        <ele>313.53</ele>
        <time>2019-10-31T15:05:32Z</time>
      </trkpt>
      <trkpt lat="48.44437" lon="6.73164">
        <ele>313.05</ele>
        <time>2019-10-31T15:05:42Z</time>
      </trkpt>
      <trkpt lat="48.44424" lon="6.73176">
        <ele>312.57</ele>
        <time>2019-10-31T15:05:51Z</time>
      </trkpt>
      <trkpt lat="48.44412" lon="6.73186">
        <ele>312.09</ele>
        <time>2019-10-31T15:06:00Z</time>
      </trkpt>
      <trkpt lat="48.44406" lon="6.73182">
        <ele>311.6</ele>
        <time>2019-10-31T15:06:09Z</time>
      </trkpt>
      <trkpt lat="48.44396" lon="6.73187">
        <ele>311.12</ele>
        <time>2019-10-31T15:06:18Z</time>
      </trkpt>
      <trkpt lat="48.44386" lon="6.7319">
        <ele>310.64</ele>
        <time>2019-10-31T15:06:27Z</time>
      </trkpt>
      <trkpt lat="48.44375" lon="6.73198">
        <ele>310.16</ele>
        <time>2019-10-31T15:06:34Z</time>
      </trkpt>
      <trkpt lat="48.44368" lon="6.73193">
        <ele>309.68</ele>
        <time>2019-10-31T15:06:45Z</time>
      </trkpt>
      <trkpt lat="48.4436" lon="6.73195">
        <ele>310.16</ele>
        <time>2019-10-31T15:06:54Z</time>
      </trkpt>
      <trkpt lat="48.44349" lon="6.73193">
        <ele>310.16</ele>
        <time>2019-10-31T15:07:05Z</time>
      </trkpt>
      <trkpt lat="48.4434" lon="6.73195">
        <ele>310.16</ele>
        <time>2019-10-31T15:07:24Z</time>
      </trkpt>
      <trkpt lat="48.44344" lon="6.73208">
        <ele>309.68</ele>
        <time>2019-10-31T15:07:58Z</time>
      </trkpt>
      <trkpt lat="48.44353" lon="6.73212">
        <ele>309.68</ele>
        <time>2019-10-31T15:08:09Z</time>
      </trkpt>
      <trkpt lat="48.44362" lon="6.73218">
        <ele>309.2</ele>
        <time>2019-10-31T15:08:19Z</time>
      </trkpt>
      <trkpt lat="48.4437" lon="6.73223">
        <ele>309.2</ele>
        <time>2019-10-31T15:08:31Z</time>
      </trkpt>
      <trkpt lat="48.44371" lon="6.73235">
        <ele>307.76</ele>
        <time>2019-10-31T15:08:47Z</time>
      </trkpt>
      <trkpt lat="48.44374" lon="6.73253">
        <ele>305.84</ele>
        <time>2019-10-31T15:08:58Z</time>
      </trkpt>
      <trkpt lat="48.44383" lon="6.73262">
        <ele>304.39</ele>
        <time>2019-10-31T15:09:08Z</time>
      </trkpt>
      <trkpt lat="48.4439" lon="6.73271">
        <ele>303.91</ele>
        <time>2019-10-31T15:09:18Z</time>
      </trkpt>
      <trkpt lat="48.44398" lon="6.73279">
        <ele>302.95</ele>
        <time>2019-10-31T15:09:28Z</time>
      </trkpt>
      <trkpt lat="48.44402" lon="6.73291">
        <ele>301.51</ele>
        <time>2019-10-31T15:09:39Z</time>
      </trkpt>
      <trkpt lat="48.44407" lon="6.73303">
        <ele>300.55</ele>
        <time>2019-10-31T15:09:49Z</time>
      </trkpt>
      <trkpt lat="48.44411" lon="6.73316">
        <ele>300.07</ele>
        <time>2019-10-31T15:09:58Z</time>
      </trkpt>
      <trkpt lat="48.44415" lon="6.73329">
        <ele>299.59</ele>
        <time>2019-10-31T15:10:07Z</time>
      </trkpt>
      <trkpt lat="48.44419" lon="6.73341">
        <ele>299.59</ele>
        <time>2019-10-31T15:10:17Z</time>
      </trkpt>
      <trkpt lat="48.44424" lon="6.73356">
        <ele>300.07</ele>
        <time>2019-10-31T15:10:27Z</time>
      </trkpt>
      <trkpt lat="48.44432" lon="6.73366">
        <ele>299.59</ele>
        <time>2019-10-31T15:10:38Z</time>
      </trkpt>
      <trkpt lat="48.44441" lon="6.73369">
        <ele>299.59</ele>
        <time>2019-10-31T15:10:48Z</time>
      </trkpt>
      <trkpt lat="48.4445" lon="6.73378">
        <ele>299.59</ele>
        <time>2019-10-31T15:11:00Z</time>
      </trkpt>
      <trkpt lat="48.44459" lon="6.73384">
        <ele>299.11</ele>
        <time>2019-10-31T15:11:15Z</time>
      </trkpt>
      <trkpt lat="48.44468" lon="6.73385">
        <ele>298.63</ele>
        <time>2019-10-31T15:11:24Z</time>
      </trkpt>
      <trkpt lat="48.44476" lon="6.73386">
        <ele>298.63</ele>
        <time>2019-10-31T15:11:33Z</time>
      </trkpt>
      <trkpt lat="48.44486" lon="6.73385">
        <ele>298.15</ele>
        <time>2019-10-31T15:11:42Z</time>
      </trkpt>
      <trkpt lat="48.44496" lon="6.73387">
        <ele>298.63</ele>
        <time>2019-10-31T15:11:51Z</time>
      </trkpt>
      <trkpt lat="48.44504" lon="6.73391">
        <ele>298.63</ele>
        <time>2019-10-31T15:12:01Z</time>
      </trkpt>
      <trkpt lat="48.44512" lon="6.73395">
        <ele>299.11</ele>
        <time>2019-10-31T15:12:09Z</time>
      </trkpt>
      <trkpt lat="48.44519" lon="6.73399">
        <ele>298.63</ele>
        <time>2019-10-31T15:12:18Z</time>
      </trkpt>
      <trkpt lat="48.44529" lon="6.73405">
        <ele>298.63</ele>
        <time>2019-10-31T15:12:34Z</time>
      </trkpt>
      <trkpt lat="48.44539" lon="6.73409">
        <ele>299.11</ele>
        <time>2019-10-31T15:12:44Z</time>
      </trkpt>
      <trkpt lat="48.44547" lon="6.73415">
        <ele>299.11</ele>
        <time>2019-10-31T15:12:53Z</time>
      </trkpt>
      <trkpt lat="48.44556" lon="6.73418">
        <ele>299.59</ele>
        <time>2019-10-31T15:13:02Z</time>
      </trkpt>
      <trkpt lat="48.44566" lon="6.73419">
        <ele>300.07</ele>
        <time>2019-10-31T15:13:11Z</time>
      </trkpt>
      <trkpt lat="48.44575" lon="6.73423">
        <ele>301.51</ele>
        <time>2019-10-31T15:13:21Z</time>
      </trkpt>
      <trkpt lat="48.44583" lon="6.73431">
        <ele>302.47</ele>
        <time>2019-10-31T15:13:31Z</time>
      </trkpt>
      <trkpt lat="48.44582" lon="6.73444">
        <ele>304.88</ele>
        <time>2019-10-31T15:13:45Z</time>
      </trkpt>
      <trkpt lat="48.44584" lon="6.73459">
        <ele>306.8</ele>
        <time>2019-10-31T15:14:03Z</time>
      </trkpt>
      <trkpt lat="48.4459" lon="6.73458">
        <ele>305.84</ele>
        <time>2019-10-31T15:14:41Z</time>
      </trkpt>
      <trkpt lat="48.446" lon="6.73455">
        <ele>304.88</ele>
        <time>2019-10-31T15:14:51Z</time>
      </trkpt>
      <trkpt lat="48.44609" lon="6.73457">
        <ele>304.39</ele>
        <time>2019-10-31T15:15:02Z</time>
      </trkpt>
      <trkpt lat="48.44615" lon="6.73455">
        <ele>304.39</ele>
        <time>2019-10-31T15:15:31Z</time>
      </trkpt>
      <trkpt lat="48.44624" lon="6.73459">
        <ele>303.91</ele>
        <time>2019-10-31T15:15:40Z</time>
      </trkpt>
      <trkpt lat="48.44634" lon="6.73464">
        <ele>303.91</ele>
        <time>2019-10-31T15:15:50Z</time>
      </trkpt>
      <trkpt lat="48.44644" lon="6.73468">
        <ele>303.43</ele>
        <time>2019-10-31T15:15:59Z</time>
      </trkpt>
      <trkpt lat="48.44646" lon="6.73477">
        <ele>303.43</ele>
        <time>2019-10-31T15:16:12Z</time>
      </trkpt>
      <trkpt lat="48.44649" lon="6.73492">
        <ele>303.43</ele>
        <time>2019-10-31T15:16:25Z</time>
      </trkpt>
      <trkpt lat="48.4465" lon="6.73498">
        <ele>303.43</ele>
        <time>2019-10-31T15:16:58Z</time>
      </trkpt>
      <trkpt lat="48.44651" lon="6.73506">
        <ele>302.47</ele>
        <time>2019-10-31T15:18:48Z</time>
      </trkpt>
      <trkpt lat="48.44644" lon="6.73511">
        <ele>301.99</ele>
        <time>2019-10-31T15:19:01Z</time>
      </trkpt>
      <trkpt lat="48.44636" lon="6.73515">
        <ele>301.51</ele>
        <time>2019-10-31T15:19:45Z</time>
      </trkpt>
      <trkpt lat="48.44635" lon="6.7353">
        <ele>301.51</ele>
        <time>2019-10-31T15:19:55Z</time>
      </trkpt>
      <trkpt lat="48.44629" lon="6.73548">
        <ele>299.59</ele>
        <time>2019-10-31T15:20:11Z</time>
      </trkpt>
      <trkpt lat="48.44617" lon="6.73565">
        <ele>297.18</ele>
        <time>2019-10-31T15:20:37Z</time>
      </trkpt>
      <trkpt lat="48.44608" lon="6.73583">
        <ele>294.78</ele>
        <time>2019-10-31T15:21:18Z</time>
      </trkpt>
      <trkpt lat="48.44595" lon="6.73592">
        <ele>290.94</ele>
        <time>2019-10-31T15:21:42Z</time>
      </trkpt>
      <trkpt lat="48.44585" lon="6.73609">
        <ele>288.53</ele>
        <time>2019-10-31T15:22:01Z</time>
      </trkpt>
      <trkpt lat="48.44578" lon="6.73634">
        <ele>286.13</ele>
        <time>2019-10-31T15:22:29Z</time>
      </trkpt>
      <trkpt lat="48.44584" lon="6.73638">
        <ele>285.65</ele>
        <time>2019-10-31T15:22:43Z</time>
      </trkpt>
      <trkpt lat="48.44593" lon="6.73641">
        <ele>284.69</ele>
        <time>2019-10-31T15:22:55Z</time>
      </trkpt>
      <trkpt lat="48.44601" lon="6.73648">
        <ele>283.73</ele>
        <time>2019-10-31T15:23:05Z</time>
      </trkpt>
      <trkpt lat="48.4461" lon="6.7365">
        <ele>283.25</ele>
        <time>2019-10-31T15:23:14Z</time>
      </trkpt>
      <trkpt lat="48.44618" lon="6.73651">
        <ele>282.77</ele>
        <time>2019-10-31T15:23:24Z</time>
      </trkpt>
      <trkpt lat="48.44626" lon="6.7365">
        <ele>282.77</ele>
        <time>2019-10-31T15:23:33Z</time>
      </trkpt>
      <trkpt lat="48.44636" lon="6.73645">
        <ele>282.28</ele>
        <time>2019-10-31T15:23:41Z</time>
      </trkpt>
      <trkpt lat="48.44645" lon="6.73639">
        <ele>282.28</ele>
        <time>2019-10-31T15:23:50Z</time>
      </trkpt>
      <trkpt lat="48.44656" lon="6.73633">
        <ele>282.28</ele>
        <time>2019-10-31T15:24:00Z</time>
      </trkpt>
      <trkpt lat="48.44663" lon="6.73634">
        <ele>282.28</ele>
        <time>2019-10-31T15:24:10Z</time>
      </trkpt>
      <trkpt lat="48.4467" lon="6.73632">
        <ele>281.8</ele>
        <time>2019-10-31T15:24:18Z</time>
      </trkpt>
      <trkpt lat="48.44678" lon="6.73629">
        <ele>281.8</ele>
        <time>2019-10-31T15:24:26Z</time>
      </trkpt>
      <trkpt lat="48.44688" lon="6.73624">
        <ele>281.8</ele>
        <time>2019-10-31T15:24:36Z</time>
      </trkpt>
      <trkpt lat="48.44698" lon="6.73615">
        <ele>281.8</ele>
        <time>2019-10-31T15:24:43Z</time>
      </trkpt>
      <trkpt lat="48.44732" lon="6.73565">
        <ele>281.32</ele>
        <time>2019-10-31T15:24:51Z</time>
      </trkpt>
      <trkpt lat="48.44741" lon="6.73562">
        <ele>281.32</ele>
        <time>2019-10-31T15:25:01Z</time>
      </trkpt>
      <trkpt lat="48.44752" lon="6.73558">
        <ele>280.84</ele>
        <time>2019-10-31T15:25:09Z</time>
      </trkpt>
      <trkpt lat="48.44759" lon="6.73558">
        <ele>280.84</ele>
        <time>2019-10-31T15:25:15Z</time>
      </trkpt>
      <trkpt lat="48.44758" lon="6.7358">
        <ele>280.84</ele>
        <time>2019-10-31T15:25:23Z</time>
      </trkpt>
      <trkpt lat="48.44762" lon="6.73591">
        <ele>280.36</ele>
        <time>2019-10-31T15:25:32Z</time>
      </trkpt>
      <trkpt lat="48.44766" lon="6.736">
        <ele>280.36</ele>
        <time>2019-10-31T15:25:40Z</time>
      </trkpt>
      <trkpt lat="48.44765" lon="6.73613">
        <ele>279.88</ele>
        <time>2019-10-31T15:25:49Z</time>
      </trkpt>
      <trkpt lat="48.44769" lon="6.73628">
        <ele>279.88</ele>
        <time>2019-10-31T15:25:59Z</time>
      </trkpt>
      <trkpt lat="48.4477" lon="6.73642">
        <ele>279.88</ele>
        <time>2019-10-31T15:26:08Z</time>
      </trkpt>
      <trkpt lat="48.44773" lon="6.73657">
        <ele>279.88</ele>
        <time>2019-10-31T15:26:17Z</time>
      </trkpt>
      <trkpt lat="48.44775" lon="6.73671">
        <ele>279.88</ele>
        <time>2019-10-31T15:26:26Z</time>
      </trkpt>
      <trkpt lat="48.44777" lon="6.73685">
        <ele>279.4</ele>
        <time>2019-10-31T15:26:35Z</time>
      </trkpt>
      <trkpt lat="48.44778" lon="6.737">
        <ele>279.4</ele>
        <time>2019-10-31T15:26:45Z</time>
      </trkpt>
      <trkpt lat="48.44779" lon="6.73717">
        <ele>278.92</ele>
        <time>2019-10-31T15:26:54Z</time>
      </trkpt>
      <trkpt lat="48.44783" lon="6.73731">
        <ele>278.92</ele>
        <time>2019-10-31T15:27:05Z</time>
      </trkpt>
      <trkpt lat="48.44784" lon="6.73746">
        <ele>278.92</ele>
        <time>2019-10-31T15:27:19Z</time>
      </trkpt>
      <trkpt lat="48.44785" lon="6.7376">
        <ele>278.92</ele>
        <time>2019-10-31T15:27:28Z</time>
      </trkpt>
      <trkpt lat="48.44787" lon="6.73775">
        <ele>278.44</ele>
        <time>2019-10-31T15:27:38Z</time>
      </trkpt>
      <trkpt lat="48.44791" lon="6.73788">
        <ele>278.44</ele>
        <time>2019-10-31T15:27:47Z</time>
      </trkpt>
      <trkpt lat="48.44796" lon="6.73802">
        <ele>278.44</ele>
        <time>2019-10-31T15:27:57Z</time>
      </trkpt>
      <trkpt lat="48.44793" lon="6.73818">
        <ele>278.44</ele>
        <time>2019-10-31T15:28:07Z</time>
      </trkpt>
      <trkpt lat="48.44791" lon="6.73834">
        <ele>278.44</ele>
        <time>2019-10-31T15:28:17Z</time>
      </trkpt>
      <trkpt lat="48.44795" lon="6.73849">
        <ele>278.44</ele>
        <time>2019-10-31T15:28:29Z</time>
      </trkpt>
      <trkpt lat="48.44784" lon="6.73862">
        <ele>278.44</ele>
        <time>2019-10-31T15:28:40Z</time>
      </trkpt>
      <trkpt lat="48.44775" lon="6.73869">
        <ele>278.44</ele>
        <time>2019-10-31T15:28:53Z</time>
      </trkpt>
      <trkpt lat="48.44761" lon="6.73882">
        <ele>278.44</ele>
        <time>2019-10-31T15:29:04Z</time>
      </trkpt>
      <trkpt lat="48.44754" lon="6.73896">
        <ele>278.44</ele>
        <time>2019-10-31T15:29:26Z</time>
      </trkpt>
      <trkpt lat="48.4475" lon="6.73901">
        <ele>278.44</ele>
        <time>2019-10-31T15:29:40Z</time>
      </trkpt>
      <trkpt lat="48.44735" lon="6.73915">
        <ele>278.44</ele>
        <time>2019-10-31T15:30:15Z</time>
      </trkpt>
      <trkpt lat="48.44723" lon="6.73926">
        <ele>277.96</ele>
        <time>2019-10-31T15:31:12Z</time>
      </trkpt>
    </trkseg>
  </trk>
</gpx>